Data for 07/06/2010

Time Sea-Level Adjusted Pressure Absolute Pressure Temperature Relative Humidity Dew Point Precipitation   
(mb) (inHg) (mb) (inHg) (C) (F) (%) (C) (F) (mm) (in)
00:01 1023 30.21 852 25.16 7.4 45.3 87 5.3 41.6 7.82 0.308
00:02 1023 30.21 852 25.16 7.3 45.2 87 5.3 41.6 7.77 0.306
00:03 1023 30.21 852 25.16 7.3 45.1 88 5.4 41.7 7.69 0.303
00:04 1023 30.21 852 25.16 7.3 45.1 88 5.3 41.6 7.66 0.302
00:05 1023 30.21 852 25.16 7.2 45 87 5.2 41.3 7.66 0.302
00:06 1023 30.21 852 25.16 7.3 45.1 87 5.3 41.5 7.68 0.302
00:07 1023 30.21 852 25.16 7.3 45.1 88 5.4 41.8 7.66 0.302
00:08 1023 30.21 852 25.16 7.2 45 89 5.5 41.8 7.68 0.302
00:09 1023 30.21 852 25.16 7.2 45 89 5.5 41.8 7.64 0.301
00:10 1023 30.21 852 25.16 7.2 44.9 89 5.5 41.9 7.62 0.3
00:11 1023 30.21 852 25.16 7.1 44.8 89 5.5 41.8 7.58 0.298
00:12 1023 30.21 852 25.16 7.1 44.9 89 5.4 41.8 7.54 0.297
00:13 1023 30.21 852 25.16 7.2 44.9 89 5.4 41.8 7.52 0.296
00:14 1023 30.21 852 25.16 7.1 44.8 88 5.3 41.6 7.51 0.296
00:15 1023 30.21 852 25.16 7.1 44.8 89 5.3 41.6 7.5 0.295
00:16 1023 30.21 852 25.16 7.1 44.7 88 5.3 41.5 7.47 0.294
00:17 1023 30.21 852 25.16 7.1 44.8 88 5.3 41.5 7.44 0.293
00:18 1023 30.21 852 25.16 7.1 44.8 88 5.2 41.4 7.48 0.294
00:19 1023 30.21 852 25.16 7.1 44.8 88 5.2 41.4 7.46 0.294
00:20 1023 30.21 852 25.16 7.1 44.8 87 5.2 41.3 7.48 0.294
00:21 1023 30.21 852 25.16 7.1 44.8 87 5.2 41.3 7.46 0.294
00:22 1023 30.21 852 25.16 7.1 44.7 87 5.1 41.1 7.43 0.293
00:23 1023 30.21 852 25.16 7.1 44.7 86 4.9 40.9 7.39 0.291
00:24 1023 30.21 852 25.16 7.1 44.7 86 4.8 40.7 7.36 0.29
00:25 1023 30.21 852 25.16 7.1 44.8 85 4.8 40.6 7.41 0.292
00:26 1023 30.21 852 25.16 7.1 44.9 85 4.8 40.6 7.42 0.292
00:27 1023 30.21 852 25.16 7.2 45 85 4.8 40.6 7.49 0.295
00:28 1023 30.21 852 25.16 7.2 44.9 85 4.8 40.6 7.51 0.296
00:29 1023 30.21 852 25.16 7.3 45.1 84 4.8 40.6 7.53 0.296
00:30 1023 30.21 852 25.16 7.3 45.1 84 4.7 40.5 7.52 0.296
00:31 1023 30.21 852 25.16 7.2 45 86 5 41 7.54 0.297
00:32 1023 30.21 852 25.16 7.1 44.9 87 5.1 41.2 7.49 0.295
00:33 1023 30.21 852 25.16 7.1 44.7 87 5.1 41.2 7.38 0.291
00:34 1023 30.21 852 25.16 7 44.6 87 5 41 7.35 0.289
00:35 1023 30.21 852 25.16 7 44.7 86 4.9 40.8 7.43 0.293
00:36 1023 30.21 852 25.16 7.1 44.8 86 5 40.9 7.46 0.294
00:37 1023 30.21 852 25.16 7.2 44.9 86 5 41 7.47 0.294
00:38 1023 30.21 852 25.16 7.1 44.8 85 4.8 40.7 7.46 0.294
00:39 1023 30.21 852 25.16 7.1 44.8 85 4.8 40.7 7.46 0.294
00:40 1023 30.21 852 25.16 7.1 44.8 85 4.8 40.6 7.43 0.293
00:41 1023 30.21 852 25.16 7.2 44.9 85 4.8 40.7 7.49 0.295
00:42 1023 30.21 852 25.16 7.1 44.9 85 4.9 40.7 7.44 0.293
00:43 1023 30.21 852 25.16 7.1 44.8 86 4.8 40.7 7.4 0.291
00:44 1023 30.21 852 25.16 7.1 44.7 86 4.8 40.7 7.41 0.292
00:45 1023 30.21 852 25.16 7 44.7 85 4.7 40.5 7.39 0.291
00:46 1023 30.21 852 25.16 7 44.7 85 4.7 40.4 7.37 0.29
00:47 1023 30.21 852 25.16 7.1 44.8 85 4.7 40.5 7.4 0.291
00:48 1023 30.21 852 25.16 7.1 44.8 84 4.7 40.4 7.44 0.293
00:49 1023 30.21 852 25.16 7.1 44.8 84 4.7 40.4 7.41 0.292
00:50 1023 30.21 852 25.16 7.2 44.9 85 4.8 40.6 7.44 0.293
00:51 1023 30.21 852 25.16 7.1 44.8 85 4.8 40.6 7.44 0.293
00:52 1023 30.21 852 25.16 7.1 44.8 85 4.8 40.7 7.42 0.292
00:53 1023 30.21 852 25.16 7.1 44.7 86 4.8 40.7 7.39 0.291
00:54 1023 30.21 852 25.16 7 44.7 86 4.8 40.7 7.33 0.289
00:55 1023 30.21 852 25.16 7 44.6 86 4.7 40.5 7.3 0.287
00:56 1023 30.21 852 25.16 7 44.5 86 4.7 40.5 7.31 0.288
00:57 1023 30.21 852 25.16 7 44.5 86 4.8 40.6 7.3 0.287
00:58 1023 30.21 852 25.16 6.9 44.5 86 4.7 40.5 7.26 0.286
00:59 1023 30.21 852 25.16 7 44.6 86 4.8 40.6 7.27 0.286
01:00 1023 30.21 852 25.16 7 44.6 86 4.8 40.7 7.28 0.287
01:01 1023 30.21 852 25.16 6.9 44.5 86 4.8 40.7 7.27 0.286
01:02 1023 30.21 852 25.16 7 44.6 86 4.9 40.7 7.29 0.287
01:03 1023 30.21 852 25.16 7 44.7 85 4.8 40.6 7.29 0.287
01:04 1023 30.21 852 25.16 7.1 44.8 84 4.5 40.2 7.32 0.288
01:05 1023 30.21 852 25.16 7.3 45.1 83 4.5 40.1 7.4 0.291
01:06 1023 30.21 852 25.16 7.3 45.2 82 4.5 40.2 7.54 0.297
01:07 1023 30.21 852 25.16 7.4 45.2 82 4.5 40.1 7.6 0.299
01:08 1023 30.21 852 25.16 7.4 45.3 82 4.5 40.1 7.65 0.301
01:09 1023 30.21 852 25.16 7.4 45.3 82 4.5 40.2 7.63 0.3
01:10 1023 30.21 852 25.16 7.3 45.1 82 4.5 40.1 7.62 0.3
01:11 1023 30.21 852 25.16 7.3 45.1 83 4.6 40.2 7.56 0.298
01:12 1023 30.21 852 25.16 7.2 45 83 4.6 40.3 7.49 0.295
01:13 1023 30.21 852 25.16 7.2 44.9 84 4.6 40.2 7.5 0.295
01:14 1023 30.21 852 25.16 7.1 44.8 84 4.7 40.4 7.41 0.292
01:15 1023 30.21 852 25.16 7 44.6 85 4.7 40.4 7.36 0.29
01:16 1023 30.21 852 25.16 7 44.6 85 4.6 40.3 7.33 0.289
01:17 1023 30.21 852 25.16 6.9 44.5 85 4.7 40.4 7.32 0.288
01:18 1023 30.21 852 25.16 6.9 44.4 86 4.7 40.5 7.25 0.285
01:19 1023 30.21 852 25.16 6.9 44.3 86 4.8 40.6 7.23 0.285
01:20 1023 30.21 852 25.16 6.8 44.2 87 4.8 40.6 7.16 0.282
01:21 1023 30.21 852 25.16 6.8 44.2 87 4.8 40.7 7.15 0.281
01:22 1023 30.21 852 25.16 6.7 44.1 88 4.8 40.7 7.12 0.28
01:23 1023 30.21 852 25.16 6.7 44 88 4.9 40.7 7.05 0.278
01:24 1023 30.21 852 25.16 6.6 44 89 4.9 40.8 7.01 0.276
01:25 1023 30.21 852 25.16 6.6 43.8 89 4.9 40.8 6.984 0.275
01:26 1023 30.21 852 25.16 6.5 43.7 89 4.9 40.8 6.91 0.272
01:27 1023 30.21 852 25.16 6.5 43.6 90 4.9 40.8 6.86 0.27
01:28 1023 30.21 852 25.16 6.4 43.6 90 4.9 40.8 6.837 0.269
01:29 1023 30.21 852 25.16 6.4 43.6 90 4.9 40.8 6.82 0.269
01:30 1023 30.21 852 25.16 6.4 43.5 90 4.9 40.9 6.782 0.267
01:31 1023 30.21 852 25.16 6.4 43.5 90 4.9 40.8 6.77 0.267
01:32 1023 30.21 852 25.16 6.4 43.5 90 4.9 40.9 6.753 0.266
01:33 1023 30.21 852 25.16 6.3 43.4 91 4.9 40.8 6.714 0.264
01:34 1023 30.21 852 25.16 6.4 43.4 90 4.9 40.8 6.686 0.263
01:35 1023 30.21 852 25.16 6.4 43.5 90 4.9 40.8 6.731 0.265
01:36 1023 30.21 852 25.16 6.4 43.5 90 4.8 40.7 6.764 0.266
01:37 1023 30.21 852 25.16 6.5 43.7 89 4.8 40.7 6.781 0.267
01:38 1023 30.21 852 25.16 6.5 43.7 89 4.8 40.7 6.781 0.267
01:39 1023 30.21 852 25.16 6.5 43.7 89 4.8 40.6 6.833 0.269
01:40 1023 30.21 852 25.16 6.6 43.8 89 4.8 40.7 6.821 0.269
01:41 1023 30.21 852 25.16 6.6 43.8 89 4.8 40.6 6.833 0.269
01:42 1023 30.21 852 25.16 6.5 43.7 88 4.7 40.5 6.765 0.266
01:43 1023 30.21 852 25.16 6.5 43.8 88 4.7 40.5 6.793 0.267
01:44 1023 30.21 852 25.16 6.6 43.8 88 4.7 40.5 6.794 0.267
01:45 1023 30.21 852 25.16 6.6 43.9 88 4.8 40.6 6.794 0.267
01:46 1023 30.21 852 25.16 6.6 43.9 88 4.7 40.5 6.845 0.269
01:47 1023 30.21 852 25.16 6.6 43.9 88 4.7 40.5 6.8 0.268
01:48 1023 30.21 852 25.16 6.6 43.9 88 4.7 40.5 6.789 0.267
01:49 1023 30.21 852 25.16 6.6 43.9 88 4.7 40.5 6.817 0.268
01:50 1023 30.21 852 25.16 6.6 43.9 88 4.7 40.5 6.806 0.268
01:51 1023 30.21 852 25.16 6.6 43.9 88 4.7 40.5 6.824 0.269
01:52 1023 30.21 852 25.16 6.6 43.9 88 4.7 40.5 6.87 0.27
01:53 1023 30.21 852 25.16 6.7 44 88 4.8 40.6 6.926 0.273
01:54 1023 30.21 852 25.16 6.7 44.1 88 4.9 40.7 6.971 0.274
01:55 1023 30.21 852 25.16 6.7 44 88 4.9 40.7 6.971 0.274
01:56 1023 30.21 852 25.16 6.7 44 89 4.9 40.9 6.967 0.274
01:57 1023 30.21 852 25.16 6.6 43.9 90 5 41 6.945 0.273
01:58 1023 30.21 852 25.16 6.6 43.8 90 5.1 41.2 6.916 0.272
01:59 1023 30.21 852 25.16 6.6 43.8 91 5.2 41.4 6.973 0.275
02:00 1023 30.21 852 25.16 6.6 43.8 91 5.2 41.4 6.978 0.275
02:01 1023 30.21 852 25.16 6.5 43.8 91 5.2 41.4 6.939 0.273
02:02 1023 30.21 852 25.16 6.5 43.8 91 5.2 41.4 6.957 0.274
02:03 1023 30.21 852 25.16 6.6 43.8 91 5.3 41.5 6.962 0.274
02:04 1023 30.21 852 25.16 6.6 43.8 91 5.3 41.5 6.968 0.274
02:05 1023 30.21 852 25.16 6.6 43.9 91 5.3 41.5 6.963 0.274
02:06 1023 30.21 852 25.16 6.6 43.9 91 5.3 41.5 6.907 0.272
02:07 1023 30.21 852 25.16 6.6 43.9 91 5.3 41.5 6.986 0.275
02:08 1023 30.21 852 25.16 6.7 44 91 5.3 41.6 6.94 0.273
02:09 1023 30.21 852 25.16 6.7 44 91 5.3 41.6 6.997 0.275
02:10 1023 30.21 852 25.16 6.7 44 91 5.4 41.7 7.03 0.277
02:11 1023 30.21 852 25.16 6.7 44 91 5.4 41.7 7.02 0.276
02:12 1023 30.21 852 25.16 6.6 44 92 5.4 41.7 6.996 0.275
02:13 1023 30.21 852 25.16 6.7 44 92 5.4 41.7 7 0.276
02:14 1023 30.21 852 25.16 6.7 44 92 5.4 41.7 6.98 0.275
02:15 1023 30.21 852 25.16 6.6 44 92 5.4 41.7 7 0.276
02:16 1023 30.21 852 25.16 6.7 44 92 5.4 41.8 7.04 0.277
02:17 1023 30.21 852 25.16 6.6 43.9 92 5.4 41.8 7 0.276
02:18 1023 30.21 852 25.16 6.6 43.9 92 5.4 41.8 6.996 0.275
02:19 1023 30.21 852 25.16 6.6 43.9 92 5.4 41.8 7.01 0.276
02:20 1023 30.21 852 25.16 6.6 43.8 92 5.4 41.8 6.969 0.274
02:21 1023 30.21 852 25.16 6.6 43.9 92 5.5 41.8 6.975 0.275
02:22 1023 30.21 852 25.16 6.6 43.8 93 5.5 41.8 6.969 0.274
02:23 1023 30.21 852 25.16 6.6 43.8 93 5.5 41.8 6.97 0.274
02:24 1023 30.21 852 25.16 6.6 43.8 93 5.5 41.9 6.947 0.274
02:25 1023 30.21 852 25.16 6.6 43.8 93 5.5 41.9 6.925 0.273
02:26 1023 30.21 852 25.16 6.6 43.9 93 5.5 42 6.971 0.274
02:27 1023 30.21 852 25.16 6.6 43.9 93 5.5 42 6.903 0.272
02:28 1023 30.21 852 25.16 6.6 43.9 93 5.5 42 6.931 0.273
02:29 1023 30.21 852 25.16 6.6 43.9 93 5.6 42 6.949 0.274
02:30 1023 30.21 852 25.16 6.6 43.9 93 5.6 42.1 6.909 0.272
02:31 1023 30.21 852 25.16 6.6 43.9 93 5.6 42.1 6.904 0.272
02:32 1023 30.21 852 25.16 6.6 43.9 93 5.6 42.1 6.983 0.275
02:33 1023 30.21 852 25.16 6.6 43.9 93 5.6 42.1 6.994 0.275
02:34 1023 30.21 852 25.16 6.6 43.9 93 5.6 42.1 7 0.276
02:35 1023 30.21 852 25.16 6.6 43.9 93 5.5 42 6.944 0.273
02:36 1023 30.21 852 25.16 6.6 44 93 5.6 42.1 6.972 0.274
02:37 1023 30.21 852 25.16 6.7 44 93 5.6 42.1 7.01 0.276
02:38 1023 30.21 852 25.16 6.7 44.1 93 5.6 42.1 7.01 0.276
02:39 1023 30.21 852 25.16 6.7 44.1 92 5.6 42 7.05 0.278
02:40 1023 30.21 852 25.16 6.8 44.2 92 5.6 42.1 7.1 0.28
02:41 1023 30.21 852 25.16 6.8 44.2 92 5.6 42.1 7.11 0.28
02:42 1023 30.21 852 25.16 6.8 44.2 92 5.6 42 7.11 0.28
02:43 1023 30.21 852 25.16 6.8 44.2 92 5.6 42.1 7.16 0.282
02:44 1023 30.21 852 25.16 6.8 44.3 92 5.6 42.1 7.16 0.282
02:45 1023 30.21 852 25.16 6.8 44.3 92 5.6 42.1 7.2 0.283
02:46 1023 30.21 852 25.16 6.8 44.3 92 5.6 42 7.19 0.283
02:47 1023 30.21 852 25.16 6.9 44.4 91 5.6 42 7.22 0.284
02:48 1023 30.21 852 25.16 6.9 44.4 91 5.6 42 7.22 0.284
02:49 1023 30.21 852 25.16 6.9 44.4 91 5.6 42 7.21 0.284
02:50 1023 30.21 852 25.16 6.9 44.4 91 5.6 42 7.18 0.283
02:51 1023 30.21 852 25.16 6.9 44.4 91 5.5 42 7.2 0.283
02:52 1023 30.21 852 25.16 6.9 44.4 91 5.5 41.9 7.23 0.285
02:53 1023 30.21 852 25.16 6.9 44.4 91 5.5 42 7.21 0.284
02:54 1023 30.21 852 25.16 6.9 44.3 91 5.5 41.9 7.22 0.284
02:55 1023 30.21 852 25.16 6.8 44.3 91 5.5 41.9 7.2 0.283
02:56 1023 30.21 852 25.16 6.8 44.3 91 5.5 41.9 7.2 0.283
02:57 1023 30.21 852 25.16 6.9 44.4 91 5.5 42 7.19 0.283
02:58 1023 30.21 852 25.16 6.9 44.4 91 5.5 42 7.2 0.283
02:59 1023 30.21 852 25.16 6.9 44.4 91 5.6 42.1 7.22 0.284
03:00 1023 30.21 852 25.16 6.9 44.4 92 5.6 42.1 7.23 0.285
03:01 1023 30.21 852 25.16 6.9 44.5 92 5.7 42.3 7.27 0.286
03:02 1023 30.21 853 25.19 6.9 44.4 92 5.7 42.2 7.27 0.286
03:03 1023 30.21 853 25.19 6.9 44.5 92 5.7 42.2 7.27 0.286
03:04 1023 30.21 853 25.19 6.9 44.5 91 5.6 42.2 7.27 0.286
03:05 1023 30.21 853 25.19 7 44.6 91 5.6 42.2 7.3 0.287
03:06 1023 30.21 853 25.19 7 44.6 91 5.6 42 7.28 0.287
03:07 1023 30.21 853 25.19 7.1 44.7 91 5.6 42.2 7.32 0.288
03:08 1023 30.21 853 25.19 7.1 44.7 91 5.7 42.2 7.33 0.289
03:09 1023 30.21 853 25.19 7 44.7 91 5.6 42.1 7.34 0.289
03:10 1023 30.21 853 25.19 7.1 44.7 90 5.5 41.9 7.35 0.289
03:11 1023 30.21 853 25.19 7.1 44.8 89 5.4 41.8 7.36 0.29
03:12 1023 30.21 853 25.19 7.2 44.9 89 5.5 41.8 7.37 0.29
03:13 1023 30.21 853 25.19 7.2 44.9 89 5.5 41.9 7.42 0.292
03:14 1023 30.21 853 25.19 7.2 44.9 89 5.4 41.8 7.43 0.293
03:15 1023 30.21 853 25.19 7.2 44.9 89 5.5 41.9 7.45 0.293
03:16 1023 30.21 853 25.19 7.2 44.9 89 5.5 42 7.48 0.294
03:17 1023 30.21 853 25.19 7.1 44.8 90 5.6 42 7.45 0.293
03:18 1023 30.21 853 25.19 7.1 44.7 90 5.5 42 7.43 0.293
03:19 1023 30.21 853 25.19 7.1 44.7 90 5.6 42.1 7.39 0.291
03:20 1023 30.21 853 25.19 7 44.6 91 5.6 42.1 7.41 0.292
03:21 1023 30.21 853 25.19 7 44.6 91 5.6 42.2 7.37 0.29
03:22 1023 30.21 853 25.19 7 44.6 91 5.6 42.2 7.35 0.289
03:23 1023 30.21 853 25.19 7 44.5 92 5.7 42.2 7.36 0.29
03:24 1023 30.21 853 25.19 7 44.5 92 5.7 42.2 7.33 0.289
03:25 1023 30.21 853 25.19 6.9 44.5 92 5.7 42.2 7.28 0.287
03:26 1024 30.24 853 25.19 6.9 44.5 92 5.7 42.2 7.31 0.288
03:27 1023 30.21 853 25.19 6.9 44.4 92 5.7 42.2 7.3 0.287
03:28 1023 30.21 853 25.19 6.9 44.4 92 5.7 42.2 7.27 0.286
03:29 1023 30.21 853 25.19 6.9 44.4 92 5.7 42.3 7.27 0.286
03:30 1023 30.21 853 25.19 6.9 44.4 92 5.7 42.3 7.27 0.286
03:31 1024 30.24 853 25.19 6.8 44.3 92 5.7 42.2 7.26 0.286
03:32 1023 30.21 853 25.19 6.9 44.4 92 5.7 42.3 7.26 0.286
03:33 1023 30.21 853 25.19 6.9 44.4 92 5.7 42.3 7.27 0.286
03:34 1023 30.21 853 25.19 6.9 44.4 92 5.7 42.3 7.24 0.285
03:35 1024 30.24 853 25.19 6.9 44.5 92 5.7 42.3 7.28 0.287
03:36 1023 30.21 853 25.19 6.9 44.4 92 5.7 42.2 7.26 0.286
03:37 1023 30.21 853 25.19 6.9 44.5 92 5.7 42.3 7.3 0.287
03:38 1023 30.21 853 25.19 6.9 44.5 92 5.7 42.3 7.24 0.285
03:39 1023 30.21 853 25.19 6.9 44.4 92 5.7 42.3 7.25 0.285
03:40 1023 30.21 853 25.19 6.9 44.4 92 5.8 42.4 7.24 0.285
03:41 1023 30.21 853 25.19 6.9 44.4 92 5.7 42.3 7.25 0.285
03:42 1023 30.21 853 25.19 6.9 44.4 93 5.8 42.4 7.25 0.285
03:43 1023 30.21 853 25.19 6.9 44.4 92 5.7 42.2 7.25 0.285
03:44 1024 30.24 853 25.19 6.9 44.4 92 5.7 42.2 7.23 0.285
03:45 1024 30.24 853 25.19 7 44.5 92 5.7 42.2 7.29 0.287
03:46 1024 30.24 853 25.19 7 44.5 91 5.7 42.2 7.32 0.288
03:47 1024 30.24 853 25.19 7 44.6 91 5.7 42.2 7.32 0.288
03:48 1024 30.24 853 25.19 7 44.6 91 5.6 42.1 7.35 0.289
03:49 1024 30.24 853 25.19 7 44.7 90 5.6 42 7.33 0.289
03:50 1024 30.24 853 25.19 7 44.7 90 5.6 42 7.37 0.29
03:51 1024 30.24 853 25.19 7.1 44.7 91 5.7 42.2 7.33 0.289
03:52 1024 30.24 853 25.19 7 44.7 91 5.7 42.2 7.39 0.291
03:53 1024 30.24 853 25.19 7.1 44.7 91 5.7 42.3 7.37 0.29
03:54 1024 30.24 853 25.19 7 44.6 91 5.7 42.3 7.38 0.291
03:55 1024 30.24 853 25.19 7 44.6 92 5.7 42.3 7.33 0.289
03:56 1023 30.21 853 25.19 6.9 44.5 92 5.7 42.2 7.35 0.289
03:57 1023 30.21 853 25.19 6.9 44.5 92 5.7 42.2 7.3 0.287
03:58 1023 30.21 853 25.19 6.9 44.4 92 5.6 42.1 7.28 0.287
03:59 1023 30.21 853 25.19 6.9 44.4 92 5.6 42.2 7.26 0.286
04:00 1023 30.21 853 25.19 6.9 44.3 92 5.6 42 7.22 0.284
04:01 1023 30.21 853 25.19 6.9 44.4 91 5.6 42 7.25 0.285
04:02 1023 30.21 853 25.19 6.8 44.3 91 5.4 41.8 7.18 0.283
04:03 1023 30.21 853 25.19 6.9 44.4 90 5.3 41.6 7.17 0.282
04:04 1023 30.21 853 25.19 6.9 44.4 89 5.3 41.5 7.19 0.283
04:05 1023 30.21 853 25.19 7 44.5 89 5.3 41.6 7.25 0.285
04:06 1023 30.21 853 25.19 7 44.5 89 5.3 41.5 7.27 0.286
04:07 1023 30.21 853 25.19 7 44.5 89 5.3 41.5 7.25 0.285
04:08 1023 30.21 853 25.19 7 44.5 88 5.2 41.3 7.24 0.285
04:09 1023 30.21 853 25.19 7 44.5 88 5.1 41.2 7.27 0.286
04:10 1023 30.21 853 25.19 7 44.6 88 5.1 41.2 7.28 0.287
04:11 1023 30.21 853 25.19 7 44.6 88 5.1 41.2 7.25 0.285
04:12 1023 30.21 853 25.19 7 44.6 87 4.9 40.9 7.28 0.287
04:13 1023 30.21 853 25.19 7.1 44.7 87 5 41 7.3 0.287
04:14 1023 30.21 853 25.19 7.1 44.8 87 5 41.1 7.35 0.289
04:15 1023 30.21 853 25.19 7.1 44.7 87 5 41.1 7.33 0.289
04:16 1023 30.21 853 25.19 7.1 44.8 86 5 41 7.35 0.289
04:17 1024 30.24 853 25.19 7.1 44.7 85 4.8 40.6 7.33 0.289
04:18 1024 30.24 853 25.19 7.1 44.8 84 4.7 40.4 7.35 0.289
04:19 1023 30.21 853 25.19 7.1 44.9 84 4.7 40.4 7.37 0.29
04:20 1024 30.24 853 25.19 7.2 44.9 85 4.8 40.7 7.42 0.292
04:21 1024 30.24 853 25.19 7.2 44.9 86 4.9 40.9 7.44 0.293
04:22 1024 30.24 853 25.19 7.1 44.8 86 5 41 7.41 0.292
04:23 1024 30.24 853 25.19 7.1 44.7 87 5.1 41.1 7.36 0.29
04:24 1024 30.24 853 25.19 7 44.6 87 5 41.1 7.31 0.288
04:25 1024 30.24 853 25.19 7 44.5 88 5.1 41.1 7.27 0.286
04:26 1024 30.24 853 25.19 6.9 44.4 88 5.1 41.2 7.27 0.286
04:27 1024 30.24 853 25.19 6.9 44.3 88 5.1 41.2 7.19 0.283
04:28 1024 30.24 853 25.19 6.8 44.2 89 5.1 41.1 7.17 0.282
04:29 1024 30.24 853 25.19 6.8 44.3 89 5.1 41.1 7.17 0.282
04:30 1024 30.24 853 25.19 6.8 44.2 89 5.1 41.2 7.12 0.28
04:31 1024 30.24 853 25.19 6.8 44.3 89 5.2 41.3 7.1 0.28
04:32 1024 30.24 853 25.19 6.8 44.2 89 5.1 41.3 7.12 0.28
04:33 1024 30.24 853 25.19 6.8 44.2 90 5.2 41.3 7.11 0.28
04:34 1024 30.24 853 25.19 6.8 44.2 90 5.2 41.3 7.09 0.279
04:35 1024 30.24 853 25.19 6.8 44.2 90 5.2 41.4 7.11 0.28
04:36 1024 30.24 853 25.19 6.7 44 90 5.2 41.3 7.08 0.279
04:37 1024 30.24 853 25.19 6.7 44.1 90 5.2 41.3 7.05 0.278
04:38 1024 30.24 853 25.19 6.7 44 90 5.1 41.2 7.02 0.276
04:39 1024 30.24 853 25.19 6.7 44 90 5.1 41.3 7.01 0.276
04:40 1024 30.24 853 25.19 6.6 44 90 5.1 41.2 6.995 0.275
04:41 1024 30.24 853 25.19 6.6 44 90 5.2 41.3 6.994 0.275
04:42 1024 30.24 853 25.19 6.6 44 90 5.1 41.2 7.01 0.276
04:43 1024 30.24 853 25.19 6.6 43.9 90 5.1 41.3 6.966 0.274
04:44 1024 30.24 853 25.19 6.6 44 90 5.1 41.3 6.977 0.275
04:45 1024 30.24 853 25.19 6.6 43.9 90 5.1 41.3 6.977 0.275
04:46 1024 30.24 853 25.19 6.6 43.8 90 5.1 41.2 6.966 0.274
04:47 1024 30.24 853 25.19 6.6 43.9 90 5 41.1 6.989 0.275
04:48 1024 30.24 853 25.19 6.6 43.9 89 5 41 6.995 0.275
04:49 1024 30.24 853 25.19 6.7 44 89 5 41 7 0.276
04:50 1024 30.24 853 25.19 6.7 44 89 5 40.9 7.01 0.276
04:51 1024 30.24 853 25.19 6.7 44.1 89 5 41 6.978 0.275
04:52 1024 30.24 853 25.19 6.7 44.1 88 5 40.9 7.05 0.278
04:53 1024 30.24 853 25.19 6.7 44.1 88 5 40.9 7.03 0.277
04:54 1024 30.24 853 25.19 6.8 44.2 88 4.9 40.8 7.06 0.278
04:55 1024 30.24 853 25.19 6.7 44.1 88 4.9 40.8 7.08 0.279
04:56 1024 30.24 853 25.19 6.7 44.1 88 4.9 40.8 7.09 0.279
04:57 1024 30.24 853 25.19 6.7 44.1 88 4.8 40.7 7.08 0.279
04:58 1024 30.24 853 25.19 6.8 44.2 88 4.9 40.8 7.09 0.279
04:59 1024 30.24 853 25.19 6.7 44.1 88 4.9 40.8 7.09 0.279
05:00 1024 30.24 853 25.19 6.7 44.1 88 4.8 40.7 7.07 0.278
05:01 1024 30.24 853 25.19 6.8 44.2 88 4.9 40.8 7.06 0.278
05:02 1024 30.24 853 25.19 6.8 44.2 88 4.9 40.7 7.1 0.28
05:03 1024 30.24 853 25.19 6.8 44.2 87 4.8 40.7 7.13 0.281
05:04 1024 30.24 853 25.19 6.8 44.2 87 4.8 40.6 7.1 0.28
05:05 1024 30.24 853 25.19 6.8 44.2 87 4.9 40.7 7.1 0.28
05:06 1024 30.24 853 25.19 6.8 44.2 88 4.9 40.8 7.09 0.279
05:07 1024 30.24 853 25.19 6.8 44.2 88 4.9 40.8 7.09 0.279
05:08 1024 30.24 853 25.19 6.7 44.1 88 4.8 40.7 7.06 0.278
05:09 1024 30.24 853 25.19 6.7 44.1 88 4.8 40.7 7.06 0.278
05:10 1024 30.24 853 25.19 6.7 44.1 88 4.8 40.7 7.04 0.277
05:11 1024 30.24 853 25.19 6.7 44.1 88 4.8 40.6 7.02 0.276
05:12 1024 30.24 853 25.19 6.7 44 87 4.7 40.5 6.962 0.274
05:13 1024 30.24 853 25.19 6.7 44 87 4.7 40.4 6.945 0.273
05:14 1024 30.24 853 25.19 6.7 44 87 4.7 40.5 7.02 0.276
05:15 1024 30.24 853 25.19 6.7 44 87 4.7 40.5 6.984 0.275
05:16 1024 30.24 853 25.19 6.7 44 88 4.8 40.6 6.979 0.275
05:17 1024 30.24 853 25.19 6.6 43.8 88 4.7 40.5 6.945 0.273
05:18 1024 30.24 853 25.19 6.6 43.8 88 4.7 40.5 6.917 0.272
05:19 1024 30.24 853 25.19 6.6 43.8 88 4.7 40.5 6.894 0.271
05:20 1024 30.24 853 25.19 6.6 43.8 87 4.7 40.4 6.917 0.272
05:21 1024 30.24 853 25.19 6.6 43.9 88 4.7 40.4 6.905 0.272
05:22 1024 30.24 853 25.19 6.6 43.8 88 4.7 40.4 6.917 0.272
05:23 1024 30.24 853 25.19 6.5 43.8 88 4.7 40.5 6.905 0.272
05:24 1024 30.24 853 25.19 6.5 43.7 88 4.6 40.4 6.866 0.27
05:25 1024 30.24 853 25.19 6.5 43.7 88 4.6 40.4 6.854 0.27
05:26 1024 30.24 853 25.19 6.5 43.6 88 4.6 40.3 6.86 0.27
05:27 1024 30.24 853 25.19 6.4 43.6 88 4.6 40.3 6.849 0.27
05:28 1024 30.24 853 25.19 6.4 43.6 88 4.6 40.4 6.758 0.266
05:29 1024 30.24 853 25.19 6.4 43.5 88 4.6 40.2 6.781 0.267
05:30 1024 30.24 853 25.19 6.4 43.5 88 4.6 40.3 6.77 0.267
05:31 1024 30.24 853 25.19 6.4 43.5 88 4.6 40.2 6.77 0.267
05:32 1024 30.24 853 25.19 6.4 43.6 88 4.6 40.3 6.775 0.267
05:33 1024 30.24 853 25.19 6.4 43.5 88 4.6 40.3 6.747 0.266
05:34 1024 30.24 853 25.19 6.4 43.5 88 4.6 40.3 6.719 0.265
05:35 1024 30.24 853 25.19 6.4 43.4 89 4.6 40.3 6.702 0.264
05:36 1024 30.24 853 25.19 6.3 43.4 89 4.6 40.3 6.713 0.264
05:37 1024 30.24 853 25.19 6.3 43.4 89 4.6 40.3 6.707 0.264
05:38 1024 30.24 853 25.19 6.3 43.4 88 4.6 40.2 6.719 0.265
05:39 1024 30.24 853 25.19 6.4 43.5 88 4.6 40.3 6.707 0.264
05:40 1024 30.24 853 25.19 6.4 43.5 89 4.6 40.4 6.747 0.266
05:41 1024 30.24 853 25.19 6.4 43.5 89 4.6 40.3 6.69 0.263
05:42 1024 30.24 853 25.19 6.4 43.5 89 4.6 40.4 6.736 0.265
05:43 1024 30.24 853 25.19 6.3 43.4 89 4.6 40.3 6.702 0.264
05:44 1024 30.24 853 25.19 6.3 43.3 89 4.6 40.3 6.69 0.263
05:45 1024 30.24 853 25.19 6.3 43.4 89 4.7 40.4 6.679 0.263
05:46 1024 30.24 853 25.19 6.3 43.3 89 4.6 40.3 6.673 0.263
05:47 1024 30.24 853 25.19 6.3 43.4 89 4.6 40.4 6.69 0.263
05:48 1024 30.24 853 25.19 6.3 43.4 89 4.7 40.4 6.662 0.262
05:49 1024 30.24 853 25.19 6.3 43.4 89 4.7 40.4 6.685 0.263
05:50 1024 30.24 853 25.19 6.3 43.4 89 4.7 40.4 6.679 0.263
05:51 1024 30.24 853 25.19 6.3 43.4 89 4.7 40.4 6.69 0.263
05:52 1024 30.24 853 25.19 6.3 43.4 89 4.7 40.4 6.73 0.265
05:53 1024 30.24 853 25.19 6.3 43.3 89 4.7 40.4 6.719 0.265
05:54 1024 30.24 853 25.19 6.3 43.4 89 4.7 40.4 6.713 0.264
05:55 1024 30.24 853 25.19 6.4 43.5 89 4.7 40.4 6.747 0.266
05:56 1024 30.24 853 25.19 6.4 43.5 89 4.7 40.5 6.713 0.264
05:57 1024 30.24 853 25.19 6.4 43.5 89 4.7 40.5 6.764 0.266
05:58 1024 30.24 853 25.19 6.4 43.6 89 4.7 40.4 6.804 0.268
05:59 1024 30.24 853 25.19 6.4 43.6 89 4.7 40.4 6.798 0.268
06:00 1024 30.24 853 25.19 6.5 43.7 88 4.7 40.5 6.843 0.269
06:01 1024 30.24 853 25.19 6.5 43.7 89 4.8 40.6 6.837 0.269
06:02 1024 30.24 853 25.19 6.5 43.7 89 4.8 40.6 6.866 0.27
06:03 1024 30.24 853 25.19 6.5 43.6 89 4.8 40.6 6.866 0.27
06:04 1024 30.24 854 25.22 6.5 43.7 89 4.8 40.7 6.871 0.271
06:05 1024 30.24 854 25.22 6.5 43.7 89 4.8 40.6 6.883 0.271
06:06 1024 30.24 854 25.22 6.5 43.6 89 4.8 40.6 6.843 0.269
06:07 1024 30.24 854 25.22 6.5 43.7 89 4.8 40.7 6.826 0.269
06:08 1024 30.24 854 25.22 6.5 43.7 89 4.8 40.6 6.883 0.271
06:09 1024 30.24 854 25.22 6.5 43.7 89 4.8 40.6 6.883 0.271
06:10 1024 30.24 854 25.22 6.5 43.8 89 4.8 40.7 6.86 0.27
06:11 1024 30.24 854 25.22 6.5 43.8 89 4.8 40.7 6.905 0.272
06:12 1024 30.24 854 25.22 6.5 43.8 89 4.9 40.7 6.86 0.27
06:13 1024 30.24 854 25.22 6.5 43.8 89 4.9 40.8 6.883 0.271
06:14 1024 30.24 854 25.22 6.5 43.8 89 4.9 40.8 6.951 0.274
06:15 1024 30.24 854 25.22 6.6 43.8 89 4.9 40.9 6.922 0.273
06:16 1024 30.24 854 25.22 6.5 43.8 89 4.9 40.8 6.888 0.271
06:17 1024 30.24 854 25.22 6.6 43.8 89 4.9 40.9 6.922 0.273
06:18 1024 30.24 854 25.22 6.6 43.8 89 4.9 40.8 6.928 0.273
06:19 1024 30.24 854 25.22 6.6 43.9 89 4.9 40.9 6.905 0.272
06:20 1024 30.24 854 25.22 6.6 43.8 89 4.9 40.8 6.951 0.274
06:21 1024 30.24 854 25.22 6.6 43.9 89 4.9 40.9 6.956 0.274
06:22 1024 30.24 854 25.22 6.6 43.9 89 5 40.9 6.956 0.274
06:23 1024 30.24 854 25.22 6.7 44 89 5 41 6.985 0.275
06:24 1024 30.24 854 25.22 6.6 44 89 5 40.9 7 0.276
06:25 1024 30.24 854 25.22 6.7 44 89 5 41 6.945 0.273
06:26 1024 30.24 854 25.22 6.7 44 89 5 41 7.01 0.276
06:27 1024 30.24 854 25.22 6.7 44 89 5 41.1 7.05 0.278
06:28 1024 30.24 854 25.22 6.7 44.1 89 5.1 41.1 7.02 0.276
06:29 1025 30.27 854 25.22 6.7 44.1 89 5 41.1 7.05 0.278
06:30 1024 30.24 854 25.22 6.7 44.1 89 5.1 41.2 7.13 0.281
06:31 1024 30.24 854 25.22 6.7 44.1 89 5.1 41.2 7.06 0.278
06:32 1025 30.27 854 25.22 6.8 44.2 89 5.1 41.2 7.12 0.28
06:33 1025 30.27 854 25.22 6.8 44.2 89 5.2 41.3 7.13 0.281
06:34 1025 30.27 854 25.22 6.8 44.2 89 5.2 41.3 7.15 0.281
06:35 1025 30.27 854 25.22 6.8 44.3 89 5.2 41.3 7.18 0.283
06:36 1025 30.27 854 25.22 6.8 44.3 89 5.2 41.3 7.19 0.283
06:37 1025 30.27 854 25.22 6.8 44.3 89 5.2 41.3 7.18 0.283
06:38 1025 30.27 854 25.22 6.8 44.3 89 5.2 41.4 7.22 0.284
06:39 1025 30.27 854 25.22 6.9 44.3 89 5.2 41.4 7.22 0.284
06:40 1025 30.27 854 25.22 6.9 44.4 89 5.3 41.5 7.26 0.286
06:41 1025 30.27 854 25.22 6.9 44.4 89 5.2 41.4 7.23 0.285
06:42 1025 30.27 854 25.22 6.9 44.4 89 5.2 41.4 7.26 0.286
06:43 1025 30.27 854 25.22 6.9 44.5 89 5.3 41.5 7.28 0.287
06:44 1025 30.27 854 25.22 6.9 44.5 89 5.3 41.6 7.32 0.288
06:45 1025 30.27 854 25.22 7 44.6 89 5.3 41.5 7.35 0.289
06:46 1025 30.27 854 25.22 7 44.6 89 5.3 41.6 7.34 0.289
06:47 1025 30.27 854 25.22 7 44.6 89 5.3 41.5 7.39 0.291
06:48 1025 30.27 854 25.22 7.1 44.7 89 5.4 41.7 7.44 0.293
06:49 1025 30.27 854 25.22 7.1 44.7 89 5.4 41.7 7.45 0.293
06:50 1025 30.27 854 25.22 7.1 44.7 89 5.4 41.6 7.47 0.294
06:51 1025 30.27 854 25.22 7.1 44.8 88 5.3 41.6 7.48 0.294
06:52 1025 30.27 854 25.22 7.2 44.9 88 5.3 41.6 7.52 0.296
06:53 1025 30.27 854 25.22 7.2 45 88 5.3 41.6 7.56 0.298
06:54 1025 30.27 854 25.22 7.2 45 88 5.4 41.7 7.54 0.297
06:55 1025 30.27 854 25.22 7.2 45 87 5.3 41.5 7.62 0.3
06:56 1025 30.27 854 25.22 7.3 45.2 87 5.3 41.6 7.61 0.3
06:57 1025 30.27 854 25.22 7.3 45.2 88 5.4 41.8 7.7 0.303
06:58 1025 30.27 854 25.22 7.4 45.3 88 5.5 41.8 7.74 0.305
06:59 1025 30.27 854 25.22 7.4 45.3 87 5.4 41.8 7.75 0.305
07:00 1025 30.27 854 25.22 7.4 45.4 88 5.5 41.9 7.74 0.305
07:01 1025 30.27 854 25.22 7.5 45.4 87 5.5 41.9 7.81 0.307
07:02 1025 30.27 854 25.22 7.5 45.4 87 5.5 41.8 7.8 0.307
07:03 1025 30.27 854 25.22 7.5 45.5 87 5.4 41.8 7.84 0.309
07:04 1025 30.27 854 25.22 7.5 45.5 87 5.5 41.9 7.82 0.308
07:05 1025 30.27 854 25.22 7.5 45.5 87 5.5 41.9 7.83 0.308
07:06 1025 30.27 854 25.22 7.6 45.6 87 5.5 42 7.9 0.311
07:07 1025 30.27 854 25.22 7.6 45.6 87 5.5 42 7.91 0.311
07:08 1025 30.27 854 25.22 7.5 45.6 86 5.4 41.7 7.94 0.313
07:09 1025 30.27 854 25.22 7.6 45.6 86 5.4 41.8 7.89 0.311
07:10 1025 30.27 854 25.22 7.6 45.7 86 5.4 41.7 7.95 0.313
07:11 1025 30.27 854 25.22 7.6 45.7 86 5.5 41.8 8.02 0.316
07:12 1025 30.27 854 25.22 7.6 45.8 86 5.5 41.9 8.01 0.315
07:13 1025 30.27 854 25.22 7.6 45.7 86 5.5 41.9 8.01 0.315
07:14 1025 30.27 854 25.22 7.7 45.8 86 5.4 41.7 8.07 0.318
07:15 1025 30.27 854 25.22 7.7 45.8 86 5.4 41.8 8.06 0.317
07:16 1025 30.27 854 25.22 7.7 45.9 85 5.4 41.7 8.03 0.316
07:17 1025 30.27 854 25.22 7.7 45.9 86 5.5 41.9 8.04 0.317
07:18 1025 30.27 854 25.22 7.7 45.9 86 5.5 42 8.08 0.318
07:19 1025 30.27 854 25.22 7.8 46 85 5.5 41.9 8.1 0.319
07:20 1025 30.27 854 25.22 7.7 45.9 85 5.4 41.7 8.07 0.318
07:21 1025 30.27 854 25.22 7.8 46 85 5.4 41.7 8.21 0.323
07:22 1025 30.27 854 25.22 7.8 46.1 85 5.5 41.9 8.26 0.325
07:23 1025 30.27 854 25.22 7.9 46.3 85 5.5 41.9 8.27 0.326
07:24 1025 30.27 854 25.22 8 46.3 84 5.5 41.9 8.32 0.328
07:25 1025 30.27 854 25.22 7.9 46.3 83 5.3 41.6 8.31 0.327
07:26 1025 30.27 854 25.22 7.9 46.2 84 5.4 41.7 8.25 0.325
07:27 1025 30.27 854 25.22 7.9 46.2 85 5.5 42 8.31 0.327
07:28 1025 30.27 854 25.22 7.9 46.2 85 5.5 42 8.33 0.328
07:29 1025 30.27 854 25.22 7.9 46.2 86 5.6 42.1 8.32 0.328
07:30 1025 30.27 854 25.22 7.9 46.3 85 5.6 42.1 8.33 0.328
07:31 1025 30.27 854 25.22 7.9 46.3 84 5.4 41.7 8.31 0.327
07:32 1025 30.27 854 25.22 7.9 46.2 84 5.4 41.7 8.28 0.326
07:33 1025 30.27 854 25.22 8 46.3 85 5.5 42 8.29 0.326
07:34 1025 30.27 854 25.22 8 46.4 85 5.7 42.2 8.42 0.331
07:35 1025 30.27 854 25.22 8.1 46.6 83 5.4 41.8 8.53 0.336
07:36 1025 30.27 854 25.22 8.3 46.9 83 5.7 42.2 8.76 0.345
07:37 1025 30.27 854 25.22 8.6 47.4 81 5.6 42 9.02 0.355
07:38 1025 30.27 854 25.22 8.8 47.9 82 5.8 42.5 9.24 0.364
07:39 1025 30.27 854 25.22 9 48.2 80 5.8 42.5 9.5 0.374
07:40 1025 30.27 854 25.22 9.2 48.6 79 5.7 42.3 9.7 0.382
07:41 1025 30.27 854 25.22 9.4 48.9 78 5.7 42.3 9.86 0.388
07:42 1025 30.27 854 25.22 9.4 49 76 5.3 41.6 9.91 0.39
07:43 1025 30.27 854 25.22 9.4 48.9 77 5.5 41.9 9.89 0.389
07:44 1025 30.27 854 25.22 9.4 48.9 78 5.7 42.3 9.87 0.389
07:45 1025 30.27 854 25.22 9.4 48.9 78 5.7 42.3 9.95 0.392
07:46 1025 30.27 854 25.22 9.4 49 76 5.4 41.7 9.89 0.389
07:47 1025 30.27 854 25.22 9.3 48.7 77 5.4 41.8 9.71 0.382
07:48 1025 30.27 854 25.22 9.1 48.4 74 4.7 40.5 9.59 0.378
07:49 1025 30.27 854 25.22 9 48.3 78 5.4 41.7 9.5 0.374
07:50 1025 30.27 854 25.22 9 48.3 78 5.4 41.6 9.51 0.374
07:51 1025 30.27 854 25.22 9 48.2 77 5.2 41.3 9.47 0.373
07:52 1025 30.27 854 25.22 9 48.1 80 5.6 42.2 9.42 0.371
07:53 1025 30.27 854 25.22 9 48.2 78 5.5 41.8 9.48 0.373
07:54 1025 30.27 854 25.22 9 48.2 79 5.5 41.9 9.44 0.372
07:55 1025 30.27 854 25.22 9 48.2 81 5.9 42.6 9.48 0.373
07:56 1025 30.27 854 25.22 9.1 48.3 78 5.4 41.7 9.54 0.376
07:57 1025 30.27 854 25.22 9 48.2 78 5.3 41.6 9.44 0.372
07:58 1025 30.27 854 25.22 9 48.1 81 5.9 42.7 9.43 0.371
07:59 1025 30.27 854 25.22 9 48.3 80 5.9 42.6 9.49 0.374
08:00 1025 30.27 854 25.22 9.1 48.3 80 5.9 42.5 9.59 0.378
08:01 1025 30.27 854 25.22 9.1 48.4 76 5 41 9.51 0.374
08:02 1025 30.27 854 25.22 9 48.2 80 5.7 42.2 9.42 0.371
08:03 1025 30.27 854 25.22 9 48.1 78 5.3 41.6 9.41 0.37
08:04 1025 30.27 854 25.22 8.9 48 78 5.3 41.5 9.33 0.367
08:05 1025 30.27 854 25.22 8.8 47.8 76 4.9 40.8 9.24 0.364
08:06 1025 30.27 854 25.22 8.8 47.8 81 5.6 42.1 9.19 0.362
08:07 1025 30.27 854 25.22 8.8 47.8 81 5.7 42.2 9.25 0.364
08:08 1025 30.27 854 25.22 8.8 47.8 79 5.4 41.7 9.25 0.364
08:09 1025 30.27 854 25.22 8.7 47.7 78 5.2 41.3 9.16 0.361
08:10 1025 30.27 854 25.22 8.7 47.7 80 5.5 41.9 9.17 0.361
08:11 1025 30.27 855 25.25 8.7 47.7 81 5.6 42 9.18 0.361
08:12 1025 30.27 855 25.25 8.7 47.6 78 5.1 41.2 9.17 0.361
08:13 1025 30.27 855 25.25 8.7 47.6 81 5.6 42.1 9.14 0.36
08:14 1025 30.27 855 25.25 8.7 47.6 81 5.6 42 9.13 0.359
08:15 1025 30.27 854 25.22 8.7 47.7 81 5.7 42.3 9.17 0.361
08:16 1025 30.27 854 25.22 8.8 47.8 81 5.8 42.4 9.24 0.364
08:17 1025 30.27 854 25.22 8.7 47.7 80 5.5 42 9.25 0.364
08:18 1025 30.27 854 25.22 8.8 47.8 81 5.6 42.1 9.18 0.361
08:19 1025 30.27 855 25.25 8.8 47.8 80 5.5 41.9 9.16 0.361
08:20 1025 30.27 854 25.22 8.8 47.8 81 5.7 42.2 9.16 0.361
08:21 1025 30.27 854 25.22 8.8 47.8 79 5.4 41.7 9.16 0.361
08:22 1025 30.27 855 25.25 8.8 47.8 79 5.4 41.7 9.2 0.362
08:23 1025 30.27 855 25.25 8.7 47.7 81 5.7 42.3 9.18 0.361
08:24 1025 30.27 855 25.25 8.7 47.7 80 5.4 41.8 9.18 0.361
08:25 1025 30.27 855 25.25 8.7 47.7 80 5.5 41.9 9.18 0.361
08:26 1025 30.27 855 25.25 8.7 47.7 81 5.6 42.1 9.18 0.361
08:27 1025 30.27 855 25.25 8.7 47.7 81 5.6 42.1 9.13 0.359
08:28 1025 30.27 855 25.25 8.6 47.5 81 5.5 41.9 9.1 0.358
08:29 1025 30.27 855 25.25 8.6 47.5 80 5.3 41.6 9.04 0.356
08:30 1025 30.27 855 25.25 8.6 47.5 81 5.5 41.9 9.03 0.356
08:31 1025 30.27 855 25.25 8.6 47.4 79 5.2 41.4 8.97 0.353
08:32 1025 30.27 855 25.25 8.6 47.4 82 5.6 42.1 8.99 0.354
08:33 1025 30.27 855 25.25 8.6 47.4 83 5.8 42.4 9.06 0.357
08:34 1025 30.27 855 25.25 8.7 47.6 81 5.6 42.1 9.09 0.358
08:35 1025 30.27 855 25.25 8.7 47.6 80 5.5 41.8 9.09 0.358
08:36 1025 30.27 855 25.25 8.6 47.6 79 5.3 41.5 9.03 0.356
08:37 1025 30.27 855 25.25 8.6 47.5 81 5.5 41.9 9.03 0.356
08:38 1025 30.27 855 25.25 8.7 47.6 82 5.7 42.3 9.07 0.357
08:39 1025 30.27 855 25.25 8.7 47.6 80 5.5 41.9 9.15 0.36
08:40 1025 30.27 855 25.25 8.7 47.7 82 5.8 42.5 9.16 0.361
08:41 1025 30.27 855 25.25 8.7 47.7 81 5.6 42.2 9.2 0.362
08:42 1025 30.27 855 25.25 8.8 47.8 83 6 42.8 9.28 0.365
08:43 1025 30.27 855 25.25 8.8 47.9 82 5.9 42.7 9.31 0.367
08:44 1026 30.3 855 25.25 8.9 48 80 5.6 42 9.34 0.368
08:45 1026 30.3 855 25.25 8.9 48 80 5.5 42 9.35 0.368
08:46 1025 30.27 855 25.25 8.9 48 82 6 42.7 9.34 0.368
08:47 1026 30.3 855 25.25 9 48.1 82 6.1 42.9 9.38 0.369
08:48 1026 30.3 855 25.25 9 48.2 81 5.9 42.7 9.43 0.371
08:49 1026 30.3 855 25.25 9 48.3 81 6 42.9 9.48 0.373
08:50 1026 30.3 855 25.25 9.1 48.3 79 5.7 42.2 9.5 0.374
08:51 1026 30.3 855 25.25 9.1 48.3 81 6 42.8 9.55 0.376
08:52 1026 30.3 855 25.25 9.1 48.4 80 5.9 42.6 9.59 0.378
08:53 1026 30.3 855 25.25 9.1 48.4 83 6.4 43.5 9.6 0.378
08:54 1026 30.3 855 25.25 9.2 48.5 79 5.8 42.5 9.66 0.38
08:55 1026 30.3 855 25.25 9.1 48.5 79 5.7 42.3 9.58 0.377
08:56 1026 30.3 855 25.25 9.1 48.3 80 5.7 42.3 9.54 0.376
08:57 1026 30.3 855 25.25 9.1 48.3 80 5.8 42.4 9.52 0.375
08:58 1026 30.3 855 25.25 9.1 48.4 81 6 42.8 9.54 0.376
08:59 1026 30.3 855 25.25 9.1 48.4 80 5.9 42.6 9.59 0.378
09:00 1026 30.3 855 25.25 9.1 48.4 80 5.8 42.5 9.59 0.378
09:01 1026 30.3 855 25.25 9.1 48.5 82 6.2 43.1 9.61 0.378
09:02 1026 30.3 855 25.25 9.2 48.5 79 5.7 42.3 9.67 0.381
09:03 1026 30.3 855 25.25 9.2 48.5 79 5.8 42.4 9.62 0.379
09:04 1026 30.3 855 25.25 9.2 48.5 80 6 42.7 9.63 0.379
09:05 1026 30.3 855 25.25 9.2 48.6 79 5.8 42.5 9.66 0.38
09:06 1026 30.3 855 25.25 9.2 48.6 80 6 42.8 9.63 0.379
09:07 1026 30.3 855 25.25 9.2 48.6 82 6.2 43.2 9.67 0.381
09:08 1026 30.3 855 25.25 9.3 48.7 79 5.9 42.6 9.77 0.385
09:09 1026 30.3 855 25.25 9.3 48.7 80 6 42.8 9.74 0.383
09:10 1026 30.3 855 25.25 9.3 48.7 80 6 42.8 9.75 0.384
09:11 1026 30.3 855 25.25 9.3 48.7 79 5.9 42.6 9.8 0.386
09:12 1026 30.3 855 25.25 9.3 48.8 79 6 42.7 9.82 0.387
09:13 1026 30.3 855 25.25 9.3 48.8 79 5.8 42.5 9.83 0.387
09:14 1026 30.3 855 25.25 9.4 48.9 82 6.5 43.7 9.88 0.389
09:15 1026 30.3 855 25.25 9.5 49 80 6.1 43.1 9.95 0.392
09:16 1026 30.3 855 25.25 9.5 49.1 79 6.1 43 10.02 0.394
09:17 1026 30.3 855 25.25 9.6 49.2 80 6.3 43.3 10.01 0.394
09:18 1026 30.3 855 25.25 9.6 49.3 81 6.5 43.6 10.1 0.398
09:19 1026 30.3 855 25.25 9.7 49.5 77 5.9 42.6 10.22 0.402
09:20 1026 30.3 855 25.25 9.7 49.5 78 6 42.9 10.22 0.402
09:21 1026 30.3 855 25.25 9.8 49.6 76 5.9 42.5 10.33 0.407
09:22 1026 30.3 855 25.25 9.9 49.8 78 6.2 43.2 10.37 0.408
09:23 1026 30.3 855 25.25 9.9 49.8 78 6.3 43.4 10.45 0.411
09:24 1026 30.3 855 25.25 10 50.1 76 5.9 42.7 10.55 0.415
09:25 1026 30.3 855 25.25 10.1 50.2 77 6.2 43.2 10.62 0.418
09:26 1026 30.3 855 25.25 10.1 50.2 78 6.4 43.6 10.68 0.42
09:27 1026 30.3 855 25.25 10.2 50.3 75 5.9 42.6 10.69 0.421
09:28 1026 30.3 855 25.25 10.2 50.3 75 6 42.8 10.71 0.422
09:29 1026 30.3 855 25.25 10.3 50.5 83 7.4 45.4 10.74 0.423
09:30 1026 30.3 855 25.25 10.5 50.9 78 6.9 44.4 11.03 0.434
09:31 1026 30.3 855 25.25 10.7 51.2 73 6.1 42.9 11.14 0.439
09:32 1026 30.3 855 25.25 10.6 51.1 79 7.1 44.8 11.07 0.436
09:33 1026 30.3 855 25.25 10.6 51 74 6.1 43 11.11 0.437
09:34 1026 30.3 855 25.25 10.4 50.8 79 7 44.5 10.93 0.43
09:35 1026 30.3 855 25.25 10.4 50.6 77 6.5 43.7 10.86 0.428
09:36 1026 30.3 855 25.25 10.3 50.5 76 6.2 43.2 10.76 0.424
09:37 1026 30.3 855 25.25 10.2 50.3 78 6.5 43.7 10.66 0.42
09:38 1026 30.3 855 25.25 10.2 50.4 78 6.5 43.8 10.68 0.42
09:39 1026 30.3 855 25.25 10.3 50.5 77 6.4 43.5 10.77 0.424
09:40 1026 30.3 855 25.25 10.4 50.7 79 7 44.5 10.84 0.427
09:41 1026 30.3 855 25.25 10.4 50.8 76 6.5 43.7 10.84 0.427
09:42 1026 30.3 855 25.25 10.3 50.6 76 6.3 43.4 10.79 0.425
09:43 1026 30.3 855 25.25 10.3 50.5 76 6.2 43.2 10.75 0.423
09:44 1026 30.3 855 25.25 10.2 50.4 77 6.5 43.6 10.69 0.421
09:45 1026 30.3 855 25.25 10.3 50.5 79 6.9 44.4 10.77 0.424
09:46 1026 30.3 855 25.25 10.4 50.6 74 6 42.8 10.87 0.428
09:47 1026 30.3 855 25.25 10.4 50.6 77 6.6 43.8 10.79 0.425
09:48 1026 30.3 855 25.25 10.4 50.6 76 6.3 43.3 10.79 0.425
09:49 1026 30.3 855 25.25 10.3 50.5 77 6.4 43.4 10.71 0.422
09:50 1026 30.3 855 25.25 10.1 50.2 75 5.8 42.5 10.57 0.416
09:51 1026 30.3 855 25.25 10 49.9 77 6.2 43.1 10.45 0.411
09:52 1026 30.3 855 25.25 9.9 49.9 79 6.4 43.5 10.42 0.41
09:53 1026 30.3 855 25.25 9.9 49.9 77 6.1 43 10.39 0.409
09:54 1026 30.3 855 25.25 9.9 49.8 78 6.2 43.1 10.33 0.407
09:55 1026 30.3 855 25.25 9.9 49.8 76 5.9 42.6 10.37 0.408
09:56 1026 30.3 855 25.25 9.9 49.8 76 5.9 42.7 10.32 0.406
09:57 1026 30.3 855 25.25 9.9 49.8 75 5.8 42.4 10.37 0.408
09:58 1026 30.3 855 25.25 9.9 49.9 76 5.9 42.6 10.44 0.411
09:59 1026 30.3 855 25.25 10 50 75 5.7 42.3 10.45 0.411
10:00 1026 30.3 855 25.25 10.1 50.2 76 6.1 42.9 10.49 0.413
10:01 1026 30.3 855 25.25 10.1 50.1 73 5.5 42 10.5 0.413
10:02 1026 30.3 855 25.25 10 50 77 6.2 43.1 10.46 0.412
10:03 1026 30.3 855 25.25 10.1 50.2 76 6.1 43 10.55 0.415
10:04 1026 30.3 855 25.25 10 50.1 75 5.8 42.4 10.53 0.415
10:05 1026 30.3 855 25.25 10 50.1 76 6.1 42.9 10.51 0.414
10:06 1026 30.3 855 25.25 10.1 50.2 75 6 42.7 10.58 0.417
10:07 1026 30.3 855 25.25 10.2 50.4 77 6.4 43.5 10.74 0.423
10:08 1026 30.3 855 25.25 10.5 50.9 75 6.3 43.3 10.97 0.432
10:09 1026 30.3 855 25.25 10.7 51.2 72 5.9 42.7 11.14 0.439
10:10 1026 30.3 855 25.25 10.9 51.6 71 5.9 42.6 11.37 0.448
10:11 1026 30.3 855 25.25 11.1 52 72 6.2 43.2 11.65 0.459
10:12 1026 30.3 855 25.25 11.4 52.5 71 6.3 43.3 11.89 0.468
10:13 1026 30.3 855 25.25 11.7 53 68 6 42.7 12.23 0.481
10:14 1026 30.3 855 25.25 11.8 53.3 72 6.9 44.5 12.38 0.487
10:15 1026 30.3 855 25.25 11.8 53.3 71 6.8 44.2 12.39 0.488
10:16 1026 30.3 855 25.25 11.9 53.4 72 7 44.6 12.41 0.489
10:17 1026 30.3 855 25.25 12 53.5 74 7.4 45.4 12.51 0.493
10:18 1026 30.3 855 25.25 11.8 53.2 70 6.5 43.8 12.32 0.485
10:19 1026 30.3 855 25.25 11.5 52.7 72 6.6 43.8 12.04 0.474
10:20 1026 30.3 855 25.25 11.3 52.4 71 6.3 43.3 11.87 0.467
10:21 1026 30.3 855 25.25 11.1 52 73 6.5 43.8 11.65 0.459
10:22 1026 30.3 855 25.25 10.9 51.7 73 6.2 43.2 11.49 0.452
10:23 1026 30.3 855 25.25 10.8 51.5 77 7 44.5 11.32 0.446
10:24 1026 30.3 855 25.25 10.7 51.3 76 6.7 44.1 11.22 0.442
10:25 1026 30.3 855 25.25 10.7 51.2 71 5.7 42.3 11.15 0.439
10:26 1026 30.3 855 25.25 10.5 51 73 5.9 42.5 10.99 0.433
10:27 1026 30.3 855 25.25 10.4 50.8 76 6.5 43.6 10.93 0.43
10:28 1026 30.3 855 25.25 10.4 50.7 77 6.5 43.7 10.91 0.43
10:29 1026 30.3 855 25.25 10.3 50.6 75 6.2 43.2 10.82 0.426
10:30 1026 30.3 855 25.25 10.3 50.5 75 6 42.8 10.73 0.422
10:31 1026 30.3 855 25.25 10.2 50.3 75 5.9 42.6 10.63 0.419
10:32 1026 30.3 855 25.25 10.1 50.2 77 6.2 43.2 10.53 0.415
10:33 1026 30.3 855 25.25 10 50 78 6.4 43.5 10.51 0.414
10:34 1026 30.3 855 25.25 10 50 79 6.5 43.7 10.52 0.414
10:35 1026 30.3 855 25.25 10 50.1 76 6 42.8 10.51 0.414
10:36 1026 30.3 855 25.25 10 50.1 77 6.3 43.3 10.49 0.413
10:37 1026 30.3 855 25.25 10.1 50.1 76 6.1 43.1 10.55 0.415
10:38 1026 30.3 855 25.25 10.1 50.1 75 5.9 42.6 10.53 0.415
10:39 1026 30.3 855 25.25 10.1 50.1 74 5.7 42.3 10.5 0.413
10:40 1026 30.3 855 25.25 10.1 50.2 76 6.1 43 10.55 0.415
10:41 1026 30.3 855 25.25 10.2 50.3 75 6 42.8 10.6 0.417
10:42 1026 30.3 855 25.25 10.2 50.4 75 6.1 42.9 10.65 0.419
10:43 1026 30.3 855 25.25 10.3 50.5 73 5.8 42.4 10.72 0.422
10:44 1026 30.3 855 25.25 10.4 50.7 75 6.2 43.2 10.79 0.425
10:45 1026 30.3 855 25.25 10.6 51.1 78 7 44.6 11.07 0.436
10:46 1026 30.3 855 25.25 11 51.8 73 6.3 43.4 11.5 0.453
10:47 1026 30.3 855 25.25 11.5 52.7 72 6.5 43.8 11.92 0.469
10:48 1026 30.3 855 25.25 11.9 53.3 67 5.9 42.6 12.3 0.484
10:49 1026 30.3 855 25.25 12 53.7 68 6.4 43.6 12.5 0.492
10:50 1026 30.3 855 25.25 12.1 53.9 69 6.7 44.1 12.58 0.495
10:51 1026 30.3 855 25.25 12.3 54.1 67 6.4 43.5 12.7 0.5
10:52 1026 30.3 855 25.25 12.4 54.4 66 6.4 43.5 12.89 0.507
10:53 1026 30.3 855 25.25 12.5 54.5 63 5.7 42.3 12.96 0.51
10:54 1026 30.3 855 25.25 12.4 54.4 67 6.5 43.6 12.83 0.505
10:55 1026 30.3 855 25.25 12.2 54 63 5.4 41.7 12.59 0.496
10:56 1026 30.3 855 25.25 12 53.5 67 6.1 43 12.36 0.487
10:57 1026 30.3 855 25.25 11.8 53.2 65 5.4 41.7 12.23 0.481
10:58 1026 30.3 855 25.25 11.7 53.1 70 6.5 43.6 12.16 0.479
10:59 1026 30.3 855 25.25 11.6 52.8 68 6 42.8 12.11 0.477
11:00 1026 30.3 855 25.25 11.5 52.6 69 6.1 43 12 0.472
11:01 1026 30.3 855 25.25 11.4 52.6 69 6.1 42.9 11.95 0.47
11:02 1026 30.3 855 25.25 11.4 52.6 69 6 42.7 11.99 0.472
11:03 1026 30.3 855 25.25 11.5 52.7 69 6.1 43 12 0.472
11:04 1026 30.3 855 25.25 11.5 52.7 66 5.4 41.6 11.99 0.472
11:05 1026 30.3 855 25.25 11.5 52.6 68 5.8 42.5 11.93 0.47
11:06 1026 30.3 855 25.25 11.6 52.8 70 6.3 43.3 12.05 0.474
11:07 1026 30.3 855 25.25 11.7 53 66 5.6 42.1 12.16 0.479
11:08 1026 30.3 855 25.25 11.8 53.2 63 4.9 40.8 12.21 0.481
11:09 1026 30.3 855 25.25 11.8 53.2 68 6.1 42.9 12.25 0.482
11:10 1026 30.3 855 25.25 11.8 53.3 63 5 41 12.32 0.485
11:11 1026 30.3 855 25.25 11.8 53.2 62 4.7 40.5 12.27 0.483
11:12 1026 30.3 855 25.25 11.8 53.2 61 4.6 40.2 12.24 0.482
11:13 1026 30.3 855 25.25 11.7 53.1 60 4.3 39.8 12.16 0.479
11:14 1026 30.3 855 25.25 11.7 53.1 57 3.6 38.6 12.11 0.477
11:15 1026 30.3 855 25.25 11.7 53.1 62 4.8 40.7 12.08 0.476
11:16 1026 30.3 855 25.25 11.8 53.3 66 5.6 42.1 12.2 0.48
11:17 1026 30.3 855 25.25 12 53.7 62 5 41.1 12.49 0.492
11:18 1026 30.3 855 25.25 12.2 53.9 59 4.3 39.8 12.52 0.493
11:19 1026 30.3 855 25.25 12.1 53.8 61 4.9 40.8 12.46 0.491
11:20 1026 30.3 855 25.25 12.1 53.7 62 5.1 41.2 12.47 0.491
11:21 1026 30.3 855 25.25 12.1 53.7 65 5.7 42.2 12.49 0.492
11:22 1026 30.3 855 25.25 12.2 53.9 63 5.3 41.6 12.55 0.494
11:23 1026 30.3 855 25.25 12.3 54.1 65 5.9 42.6 12.56 0.494
11:24 1026 30.3 855 25.25 12.3 54.1 68 6.7 44.1 12.61 0.496
11:25 1026 30.3 855 25.25 12.3 54.2 64 5.7 42.3 12.6 0.496
11:26 1026 30.3 855 25.25 12.2 54 67 6.3 43.3 12.53 0.493
11:27 1026 30.3 855 25.25 12.1 53.9 67 6.2 43.1 12.48 0.491
11:28 1026 30.3 855 25.25 12.1 53.7 63 5.4 41.7 12.41 0.489
11:29 1026 30.3 855 25.25 12 53.6 66 5.9 42.6 12.35 0.486
11:30 1026 30.3 855 25.25 12 53.6 66 6 42.8 12.35 0.486
11:31 1026 30.3 855 25.25 12 53.6 67 6.1 42.9 12.32 0.485
11:32 1026 30.3 855 25.25 12 53.6 65 5.5 42 12.31 0.485
11:33 1026 30.3 855 25.25 11.9 53.5 64 5.4 41.8 12.27 0.483
11:34 1026 30.3 855 25.25 11.9 53.4 67 6.1 43 12.24 0.482
11:35 1026 30.3 855 25.25 11.9 53.4 64 5.4 41.7 12.23 0.481
11:36 1026 30.3 855 25.25 11.9 53.5 61 4.6 40.3 12.18 0.48
11:37 1026 30.3 855 25.25 12 53.5 61 4.7 40.5 12.23 0.481
11:38 1026 30.3 855 25.25 12 53.7 62 5.1 41.1 12.25 0.482
11:39 1026 30.3 855 25.25 12.1 53.8 61 4.9 40.7 12.3 0.484
11:40 1026 30.3 855 25.25 12.2 53.9 57 4 39.1 12.43 0.489
11:41 1026 30.3 855 25.25 12.3 54.1 57 4.1 39.5 12.45 0.49
11:42 1026 30.3 855 25.25 12.4 54.3 59 4.6 40.3 12.62 0.497
11:43 1026 30.3 855 25.25 12.7 54.8 56 4.2 39.6 12.93 0.509
11:44 1026 30.3 855 25.25 12.9 55.2 51 3 37.4 13.18 0.519
11:45 1026 30.3 855 25.25 12.8 55.1 58 4.8 40.7 13.17 0.519
11:46 1026 30.3 855 25.25 12.9 55.2 57 4.6 40.3 13.33 0.525
11:47 1026 30.3 855 25.25 13 55.5 54 4.1 39.3 13.4 0.528
11:48 1026 30.3 855 25.25 13.1 55.6 60 5.6 42.2 13.48 0.531
11:49 1026 30.3 855 25.25 13.2 55.8 57 5 40.9 13.61 0.536
11:50 1026 30.3 855 25.25 13.3 56 56 4.8 40.6 13.65 0.537
11:51 1026 30.3 855 25.25 13.3 55.9 59 5.6 42 13.69 0.539
11:52 1026 30.3 855 25.25 13.4 56.1 58 5.4 41.7 13.89 0.547
11:53 1026 30.3 855 25.25 13.5 56.4 60 5.9 42.7 13.79 0.543
11:54 1026 30.3 855 25.25 13.6 56.4 62 6.4 43.6 13.72 0.54
11:55 1026 30.3 855 25.25 13.6 56.5 63 6.7 44 13.81 0.544
11:56 1026 30.3 855 25.25 13.8 56.8 60 6.2 43.2 14.02 0.552
11:57 1026 30.3 855 25.25 13.7 56.7 65 7.3 45.1 14.05 0.553
11:58 1026 30.3 855 25.25 13.7 56.6 62 6.5 43.7 14.08 0.554
11:59 1026 30.3 855 25.25 13.6 56.4 58 5.4 41.8 13.87 0.546
12:00 1026 30.3 855 25.25 13.4 56.2 55 4.6 40.3 13.58 0.535
12:01 1026 30.3 855 25.25 13.3 55.9 58 5.3 41.5 13.38 0.527
12:02 1026 30.3 855 25.25 13.1 55.5 58 5.2 41.3 13.23 0.521
12:03 1026 30.3 855 25.25 12.9 55.2 64 6.3 43.3 13.1 0.516
12:04 1026 30.3 855 25.25 12.8 55 61 5.4 41.7 13.06 0.514
12:05 1026 30.3 855 25.25 12.7 54.8 65 6.4 43.5 12.96 0.51
12:06 1026 30.3 855 25.25 12.7 54.8 61 5.3 41.5 13.06 0.514
12:07 1026 30.3 855 25.25 12.6 54.7 60 5.1 41.2 12.98 0.511
12:08 1026 30.3 855 25.25 12.6 54.6 61 5.3 41.6 12.94 0.509
12:09 1026 30.3 855 25.25 12.6 54.7 57 4.4 39.9 13.06 0.514
12:10 1026 30.3 855 25.25 12.7 54.9 54 3.8 38.9 13.15 0.518
12:11 1026 30.3 855 25.25 12.9 55.2 55 4.2 39.5 13.29 0.523
12:12 1026 30.3 855 25.25 13 55.4 58 4.9 40.9 13.41 0.528
12:13 1026 30.3 855 25.25 12.9 55.3 57 4.6 40.3 13.44 0.529
12:14 1026 30.3 855 25.25 12.9 55.1 56 4.5 40 13.37 0.526
12:15 1026 30.3 855 25.25 12.9 55.1 62 5.9 42.5 13.37 0.526
12:16 1026 30.3 855 25.25 12.9 55.3 58 5 40.9 13.47 0.53
12:17 1026 30.3 855 25.25 13.1 55.6 54 4.2 39.5 13.52 0.532
12:18 1026 30.3 855 25.25 13.2 55.8 56 4.7 40.5 13.54 0.533
12:19 1026 30.3 855 25.25 13.2 55.8 57 5 41 13.6 0.535
12:20 1026 30.3 855 25.25 13.1 55.6 54 4 39.3 13.52 0.532
12:21 1026 30.3 855 25.25 13.1 55.7 58 5.2 41.3 13.52 0.532
12:22 1026 30.3 855 25.25 13.2 55.7 50 3 37.5 13.51 0.532
12:23 1026 30.3 855 25.25 13.1 55.5 61 5.8 42.4 13.5 0.531
12:24 1026 30.3 855 25.25 13.2 55.7 55 4.3 39.8 13.61 0.536
12:25 1026 30.3 855 25.25 13.3 55.9 57 5 41 13.72 0.54
12:26 1026 30.3 855 25.25 13.3 56 54 4.4 39.9 13.82 0.544
12:27 1026 30.3 855 25.25 13.5 56.3 64 6.8 44.3 14 0.551
12:28 1026 30.3 855 25.25 13.7 56.6 59 6 42.7 14.19 0.559
12:29 1026 30.3 855 25.25 13.8 56.9 62 6.8 44.2 14.16 0.557
12:30 1026 30.3 855 25.25 13.8 56.8 63 7 44.6 14.02 0.552
12:31 1026 30.3 855 25.25 13.7 56.7 62 6.6 43.8 13.9 0.547
12:32 1026 30.3 855 25.25 13.6 56.4 60 6.1 43.1 13.81 0.544
12:33 1026 30.3 855 25.25 13.5 56.4 65 7.2 44.9 13.79 0.543
12:34 1026 30.3 855 25.25 13.7 56.6 66 7.5 45.5 13.95 0.549
12:35 1026 30.3 855 25.25 13.8 56.8 62 6.6 43.9 14.07 0.554
12:36 1026 30.3 855 25.25 13.7 56.6 62 6.5 43.8 13.93 0.548
12:37 1026 30.3 855 25.25 13.5 56.3 59 5.7 42.3 13.84 0.545
12:38 1026 30.3 855 25.25 13.6 56.4 67 7.7 45.8 13.84 0.545
12:39 1026 30.3 855 25.25 13.8 56.9 56 5.3 41.6 14.17 0.558
12:40 1026 30.3 855 25.25 14 57.2 59 6.2 43.1 14.22 0.56
12:41 1026 30.3 855 25.25 13.9 57 59 6.1 43 14.11 0.556
12:42 1026 30.3 855 25.25 13.7 56.7 64 7.2 44.9 13.98 0.55
12:43 1026 30.3 855 25.25 13.7 56.6 63 6.8 44.2 13.98 0.55
12:44 1026 30.3 855 25.25 13.7 56.6 65 7.3 45.1 13.94 0.549
12:45 1026 30.3 855 25.25 13.6 56.4 59 5.7 42.3 13.77 0.542
12:46 1026 30.3 855 25.25 13.4 56 60 5.8 42.5 13.68 0.539
12:47 1026 30.3 855 25.25 13.3 55.9 60 5.9 42.6 13.6 0.535
12:48 1026 30.3 855 25.25 13.3 55.9 62 6.3 43.3 13.49 0.531
12:49 1026 30.3 855 25.25 13.2 55.8 63 6.4 43.4 13.44 0.529
12:50 1026 30.3 855 25.25 13.2 55.7 63 6.3 43.3 13.47 0.53
12:51 1026 30.3 855 25.25 13.2 55.7 65 6.7 44.1 13.41 0.528
12:52 1026 30.3 855 25.25 13.1 55.6 58 5.1 41.2 13.4 0.528
12:53 1026 30.3 855 25.25 13.2 55.8 64 6.7 44 13.5 0.531
12:54 1026 30.3 855 25.25 13.4 56.2 56 4.8 40.7 13.73 0.541
12:55 1026 30.3 855 25.25 13.4 56.2 55 4.6 40.3 13.65 0.537
12:56 1026 30.3 855 25.25 13.4 56 59 5.5 41.9 13.65 0.537
12:57 1026 30.3 855 25.25 13.2 55.8 59 5.5 42 13.6 0.535
12:58 1026 30.3 855 25.25 13.1 55.7 59 5.3 41.5 13.56 0.534
12:59 1026 30.3 855 25.25 13.1 55.6 54 4.1 39.3 13.5 0.531
13:00 1026 30.3 855 25.25 13.1 55.5 53 3.7 38.6 13.46 0.53
13:01 1026 30.3 855 25.25 13 55.5 53 3.8 38.9 13.45 0.53
13:02 1026 30.3 855 25.25 13.1 55.6 61 5.9 42.6 13.47 0.53
13:03 1026 30.3 855 25.25 13.2 55.7 56 4.7 40.5 13.59 0.535
13:04 1026 30.3 855 25.25 13.2 55.8 57 4.8 40.7 13.49 0.531
13:05 1026 30.3 855 25.25 13.1 55.7 53 3.9 39 13.4 0.528
13:06 1026 30.3 855 25.25 13 55.4 58 5 41 13.23 0.521
13:07 1026 30.3 855 25.25 13 55.3 58 5 41 13.18 0.519
13:08 1026 30.3 855 25.25 12.9 55.2 57 4.5 40.2 13.23 0.521
13:09 1026 30.3 855 25.25 12.9 55.2 53 3.7 38.7 13.19 0.519
13:10 1026 30.3 855 25.25 12.8 55.1 57 4.7 40.4 13.11 0.516
13:11 1026 30.3 855 25.25 12.8 55.1 53 3.7 38.7 13.16 0.518
13:12 1026 30.3 855 25.25 12.9 55.2 55 4.3 39.7 13.23 0.521
13:13 1026 30.3 855 25.25 12.9 55.3 53 3.5 38.3 13.16 0.518
13:14 1026 30.3 855 25.25 12.9 55.1 59 5.1 41.2 13.14 0.517
13:15 1026 30.3 855 25.25 12.8 55.1 56 4.4 39.9 13.12 0.517
13:16 1026 30.3 855 25.25 12.9 55.1 51 3.1 37.5 13.06 0.514
13:17 1026 30.3 855 25.25 12.9 55.1 50 2.7 36.8 13.02 0.513
13:18 1026 30.3 855 25.25 12.8 55.1 54 3.8 38.9 13.05 0.514
13:19 1026 30.3 855 25.25 12.8 55.1 58 4.9 40.9 13.05 0.514
13:20 1026 30.3 855 25.25 12.9 55.1 58 5 40.9 13.13 0.517
13:21 1026 30.3 855 25.25 13 55.4 53 3.6 38.5 13.23 0.521
13:22 1026 30.3 855 25.25 13 55.5 58 5.1 41.2 13.31 0.524
13:23 1026 30.3 855 25.25 13.1 55.6 55 4.3 39.8 13.44 0.529
13:24 1026 30.3 855 25.25 13.2 55.7 56 4.7 40.5 13.4 0.528
13:25 1026 30.3 855 25.25 13.2 55.8 58 5.2 41.3 13.38 0.527
13:26 1026 30.3 855 25.25 13.2 55.8 53 3.8 38.9 13.44 0.529
13:27 1026 30.3 855 25.25 13.2 55.8 50 3.1 37.5 13.42 0.528
13:28 1026 30.3 855 25.25 13.2 55.7 50 3 37.4 13.37 0.526
13:29 1026 30.3 855 25.25 13.1 55.6 49 2.8 37 13.33 0.525
13:30 1026 30.3 855 25.25 13.1 55.6 53 3.9 39 13.4 0.528
13:31 1026 30.3 855 25.25 13.2 55.8 53 3.9 39 13.52 0.532
13:32 1026 30.3 855 25.25 13.3 56 57 4.9 40.9 13.65 0.537
13:33 1026 30.3 855 25.25 13.5 56.2 55 4.6 40.2 13.79 0.543
13:34 1026 30.3 855 25.25 13.5 56.3 54 4.5 40.1 13.88 0.546
13:35 1026 30.3 855 25.25 13.5 56.2 55 4.8 40.6 13.77 0.542
13:36 1026 30.3 855 25.25 13.4 56.1 54 4.4 39.9 13.75 0.541
13:37 1026 30.3 855 25.25 13.4 56.1 49 2.9 37.3 13.75 0.541
13:38 1026 30.3 855 25.25 13.4 56.1 57 5 41.1 13.73 0.541
13:39 1026 30.3 855 25.25 13.5 56.2 53 4.1 39.4 13.85 0.545
13:40 1026 30.3 855 25.25 13.6 56.5 56 5.2 41.3 13.9 0.547
13:41 1026 30.3 855 25.25 13.8 56.8 57 5.5 41.9 14.1 0.555
13:42 1026 30.3 855 25.25 14 57.2 58 6 42.8 14.3 0.563
13:43 1026 30.3 855 25.25 14.1 57.3 56 5.4 41.7 14.42 0.568
13:44 1026 30.3 855 25.25 14 57.2 51 4.2 39.5 14.35 0.565
13:45 1026 30.3 855 25.25 14 57.1 56 5.5 41.9 14.32 0.564
13:46 1026 30.3 855 25.25 14.1 57.4 56 5.5 41.8 14.46 0.569
13:47 1026 30.3 855 25.25 14.2 57.5 58 6.1 43 14.37 0.566
13:48 1026 30.3 855 25.25 14.2 57.6 54 5.1 41.1 14.53 0.572
13:49 1026 30.3 855 25.25 14.3 57.8 51 4.4 39.9 14.71 0.579
13:50 1026 30.3 855 25.25 14.3 57.7 49 3.9 39 14.82 0.583
13:51 1026 30.3 855 25.25 14.5 58.1 53 5.1 41.2 15.08 0.594
13:52 1026 30.3 855 25.25 14.7 58.5 52 4.9 40.9 15.23 0.6
13:53 1026 30.3 855 25.25 14.7 58.5 43 2.3 36.2 15.19 0.598
13:54 1026 30.3 855 25.25 14.6 58.3 44 2.7 36.9 15.08 0.594
13:55 1026 30.3 855 25.25 14.5 58.2 48 3.9 38.9 14.98 0.59
13:56 1026 30.3 855 25.25 14.5 58.1 47 3.5 38.4 14.92 0.587
13:57 1026 30.3 855 25.25 14.6 58.3 55 5.7 42.2 15.13 0.596
13:58 1026 30.3 855 25.25 14.9 58.7 54 5.7 42.2 15.35 0.604
13:59 1026 30.3 855 25.25 14.9 58.8 51 4.8 40.7 15.35 0.604
14:00 1026 30.3 855 25.25 14.7 58.5 53 5.2 41.4 15.21 0.599
14:01 1026 30.3 855 25.25 14.7 58.5 49 4.1 39.4 15.23 0.6
14:02 1026 30.3 855 25.25 14.7 58.4 49 4 39.3 15.19 0.598
14:03 1026 30.3 855 25.25 14.7 58.4 50 4.3 39.8 15.22 0.599
14:04 1026 30.3 855 25.25 14.8 58.6 54 5.6 42 15.37 0.605
14:05 1026 30.3 855 25.25 14.9 58.8 54 5.8 42.4 15.44 0.608
14:06 1026 30.3 855 25.25 15.1 59.2 55 6.2 43.2 15.68 0.617
14:07 1026 30.3 855 25.25 15.2 59.4 54 6 42.8 15.74 0.62
14:08 1026 30.3 855 25.25 15.2 59.3 52 5.4 41.7 15.67 0.617
14:09 1026 30.3 855 25.25 15.2 59.4 54 6.2 43.1 15.71 0.619
14:10 1026 30.3 855 25.25 15.1 59.3 53 5.8 42.4 15.71 0.619
14:11 1026 30.3 855 25.25 15.1 59.2 43 2.8 37 15.71 0.619
14:12 1026 30.3 855 25.25 15 59 44 2.8 37 15.54 0.612
14:13 1026 30.3 855 25.25 14.8 58.6 42 2 35.6 15.28 0.602
14:14 1026 30.3 855 25.25 14.6 58.3 52 5 40.9 15.2 0.598
14:15 1026 30.3 855 25.25 14.7 58.5 56 6.2 43.2 15.32 0.603
14:16 1026 30.3 855 25.25 15 59 50 4.7 40.5 15.56 0.613
14:17 1026 30.3 855 25.25 15.2 59.3 53 5.6 42.1 15.76 0.62
14:18 1026 30.3 855 25.25 15.2 59.3 42 2.6 36.7 15.73 0.619
14:19 1026 30.3 855 25.25 15 59 46 3.7 38.6 15.58 0.613
14:20 1026 30.3 855 25.25 15.1 59.2 47 3.9 39 15.64 0.616
14:21 1026 30.3 855 25.25 15.2 59.3 54 6.1 42.9 15.75 0.62
14:22 1026 30.3 855 25.25 15.3 59.5 50 5 40.9 15.84 0.624
14:23 1026 30.3 855 25.25 15.4 59.7 58 7.2 45 15.99 0.63
14:24 1026 30.3 855 25.25 15.7 60.2 45 4 39.2 16.17 0.637
14:25 1026 30.3 855 25.25 15.8 60.4 42 2.9 37.3 16.16 0.636
14:26 1026 30.3 855 25.25 15.6 60.1 46 4.2 39.6 15.97 0.629
14:27 1026 30.3 855 25.25 15.5 59.9 41 2.4 36.4 15.81 0.622
14:28 1026 30.3 855 25.25 15.5 60 43 3 37.4 15.82 0.623
14:29 1026 30.3 855 25.25 15.6 60.1 49 5.1 41.1 15.94 0.628
14:30 1026 30.3 855 25.25 15.8 60.4 49 5 41.1 16.14 0.635
14:31 1026 30.3 855 25.25 16 60.7 51 6 42.9 16.26 0.64
14:32 1026 30.3 855 25.25 16 60.8 49 5.3 41.6 16.29 0.641
14:33 1026 30.3 855 25.25 15.9 60.6 50 5.5 42 16.16 0.636
14:34 1026 30.3 855 25.25 15.8 60.4 49 5.1 41.2 16.08 0.633
14:35 1026 30.3 855 25.25 15.8 60.5 47 4.6 40.3 16.13 0.635
14:36 1026 30.3 855 25.25 15.8 60.4 44 3.5 38.3 16.12 0.635
14:37 1026 30.3 855 25.25 15.7 60.3 43 3.4 38.1 16.18 0.637
14:38 1026 30.3 855 25.25 15.7 60.2 47 4.5 40.1 16.21 0.638
14:39 1026 30.3 855 25.25 15.8 60.4 40 2.2 35.9 16.37 0.644
14:40 1026 30.3 855 25.25 15.8 60.4 48 4.8 40.7 16.36 0.644
14:41 1026 30.3 855 25.25 15.7 60.3 46 4.1 39.5 16.38 0.645
14:42 1026 30.3 855 25.25 15.8 60.4 49 5.3 41.5 16.42 0.646
14:43 1026 30.3 855 25.25 15.9 60.6 51 5.9 42.5 16.49 0.649
14:44 1026 30.3 855 25.25 16 60.8 51 5.9 42.7 16.56 0.652
14:45 1026 30.3 855 25.25 16 60.8 54 6.8 44.2 16.54 0.651
14:46 1026 30.3 855 25.25 16 60.8 47 4.8 40.7 16.49 0.649
14:47 1026 30.3 855 25.25 15.9 60.6 53 6.4 43.6 16.36 0.644
14:48 1026 30.3 855 25.25 15.8 60.5 49 5.3 41.5 16.37 0.644
14:49 1026 30.3 855 25.25 15.8 60.5 47 4.6 40.2 16.38 0.645
14:50 1026 30.3 855 25.25 15.8 60.5 43 3.4 38.1 16.37 0.644
14:51 1026 30.3 855 25.25 15.8 60.5 47 4.5 40.1 16.3 0.642
14:52 1026 30.3 855 25.25 15.9 60.6 50 5.5 41.8 16.37 0.644
14:53 1026 30.3 855 25.25 16 60.8 49 5.3 41.6 16.41 0.646
14:54 1026 30.3 855 25.25 16.1 61 46 4.7 40.4 16.51 0.65
14:55 1025 30.27 855 25.25 16 60.9 49 5.6 42 16.42 0.646
14:56 1025 30.27 855 25.25 15.9 60.5 45 4 39.1 16.25 0.64
14:57 1025 30.27 855 25.25 15.7 60.3 43 3.3 38 16.09 0.633
14:58 1025 30.27 855 25.25 15.6 60 46 4.1 39.4 15.9 0.626
14:59 1025 30.27 855 25.25 15.4 59.8 50 5 41 15.85 0.624
15:00 1025 30.27 855 25.25 15.4 59.8 46 4 39.2 15.81 0.622
15:01 1025 30.27 855 25.25 15.2 59.4 48 4.5 40.1 15.6 0.614
15:02 1025 30.27 855 25.25 15 58.9 48 4 39.2 15.39 0.606
15:03 1025 30.27 855 25.25 14.9 58.7 45 3.2 37.7 15.26 0.601
15:04 1025 30.27 855 25.25 14.8 58.7 47 3.6 38.5 15.21 0.599
15:05 1025 30.27 855 25.25 14.8 58.7 51 4.8 40.7 15.15 0.596
15:06 1025 30.27 855 25.25 14.9 58.7 50 4.5 40.1 15.16 0.597
15:07 1026 30.3 855 25.25 14.8 58.7 49 4.2 39.6 15.15 0.596
15:08 1025 30.27 855 25.25 14.9 58.8 47 3.7 38.7 15.27 0.601
15:09 1025 30.27 855 25.25 15.1 59.1 51 5 40.9 15.43 0.607
15:10 1025 30.27 855 25.25 15.3 59.6 47 4.2 39.6 15.75 0.62
15:11 1025 30.27 855 25.25 15.7 60.2 42 2.8 37 16.09 0.633
15:12 1025 30.27 855 25.25 15.9 60.6 41 2.9 37.2 16.23 0.639
15:13 1025 30.27 855 25.25 16.2 61.1 52 6.3 43.4 16.48 0.649
15:14 1025 30.27 855 25.25 16.5 61.8 49 6 42.8 16.83 0.663
15:15 1025 30.27 855 25.25 16.8 62.2 39 2.9 37.3 16.93 0.667
15:16 1025 30.27 855 25.25 16.9 62.5 44 4.8 40.7 17.12 0.674
15:17 1025 30.27 855 25.25 17.1 62.7 52 7.2 45 17.41 0.685
15:18 1025 30.27 855 25.25 17 62.7 47 5.8 42.4 17.42 0.686
15:19 1025 30.27 855 25.25 16.8 62.2 49 6.2 43.2 17.17 0.676
15:20 1025 30.27 855 25.25 16.3 61.4 43 3.9 39.1 16.76 0.66
15:21 1025 30.27 855 25.25 16.1 60.9 43 3.5 38.2 16.51 0.65
15:22 1025 30.27 855 25.25 15.9 60.6 46 4.3 39.8 16.33 0.643
15:23 1025 30.27 855 25.25 15.8 60.4 44 3.6 38.6 16.11 0.634
15:24 1025 30.27 855 25.25 15.7 60.2 46 4.1 39.4 16.04 0.631
15:25 1025 30.27 855 25.25 15.8 60.4 51 5.7 42.3 16.15 0.636
15:26 1025 30.27 855 25.25 15.7 60.3 52 6 42.9 16.17 0.637
15:27 1025 30.27 855 25.25 15.7 60.2 51 5.7 42.3 15.99 0.63
15:28 1025 30.27 855 25.25 15.5 59.9 46 4 39.2 15.7 0.618
15:29 1025 30.27 855 25.25 15.2 59.4 48 4.3 39.8 15.47 0.609
15:30 1025 30.27 855 25.25 15.1 59.2 54 5.8 42.5 15.39 0.606
15:31 1025 30.27 855 25.25 14.9 58.8 49 4.5 40.1 15.23 0.6
15:32 1025 30.27 855 25.25 14.8 58.6 56 6.2 43.2 15.17 0.597
15:33 1025 30.27 855 25.25 14.8 58.6 53 5.5 41.9 15.19 0.598
15:34 1025 30.27 855 25.25 14.8 58.7 53 5.5 41.8 15.22 0.599
15:35 1025 30.27 855 25.25 14.8 58.7 52 5 41 15.18 0.598
15:36 1025 30.27 855 25.25 14.7 58.5 53 5.3 41.6 15.1 0.594
15:37 1025 30.27 855 25.25 14.7 58.4 50 4.4 39.9 14.98 0.59
15:38 1025 30.27 855 25.25 14.6 58.3 53 5.3 41.5 14.94 0.588
15:39 1025 30.27 855 25.25 14.5 58.2 50 4.3 39.7 14.84 0.584
15:40 1025 30.27 855 25.25 14.6 58.2 51 4.6 40.2 14.9 0.587
15:41 1025 30.27 855 25.25 14.8 58.7 54 5.7 42.2 15.21 0.599
15:42 1025 30.27 855 25.25 15.3 59.6 45 3.7 38.7 15.67 0.617
15:43 1025 30.27 855 25.25 15.7 60.2 43 3.1 37.6 15.98 0.629
15:44 1025 30.27 855 25.25 15.9 60.7 50 5.6 42 16.24 0.639
15:45 1025 30.27 855 25.25 16.2 61.2 46 4.7 40.4 16.52 0.65
15:46 1025 30.27 855 25.25 16.3 61.3 44 4 39.3 16.55 0.652
15:47 1025 30.27 855 25.25 16.2 61.2 42 3.5 38.3 16.55 0.652
15:48 1025 30.27 855 25.25 16.3 61.4 43 3.8 38.8 16.7 0.657
15:49 1025 30.27 855 25.25 16.4 61.6 45 4.7 40.5 16.81 0.662
15:50 1025 30.27 855 25.25 16.5 61.6 50 6 42.9 16.91 0.666
15:51 1025 30.27 855 25.25 16.6 61.8 49 5.9 42.6 17 0.669
15:52 1025 30.27 855 25.25 16.8 62.2 48 5.9 42.6 17.11 0.674
15:53 1025 30.27 855 25.25 17 62.5 47 5.7 42.3 17.3 0.681
15:54 1025 30.27 855 25.25 17 62.6 51 6.9 44.4 17.46 0.687
15:55 1025 30.27 855 25.25 17.1 62.8 49 6.4 43.4 17.55 0.691
15:56 1025 30.27 855 25.25 17.2 63 53 7.8 46 17.56 0.691
15:57 1025 30.27 855 25.25 17.3 63.2 45 5.3 41.5 17.61 0.693
15:58 1025 30.27 855 25.25 17.3 63.2 48 6.3 43.4 17.44 0.687
15:59 1025 30.27 855 25.25 17.2 63 48 6.4 43.4 17.26 0.68
16:00 1025 30.27 855 25.25 17.1 62.7 50 6.6 43.9 17.11 0.674
16:01 1025 30.27 855 25.25 16.9 62.4 47 5.5 41.9 16.96 0.668
16:02 1025 30.27 855 25.25 16.7 62.1 52 6.8 44.2 16.87 0.664
16:03 1025 30.27 855 25.25 16.7 62 44 4.5 40.1 16.87 0.664
16:04 1025 30.27 855 25.25 16.4 61.5 47 5.1 41.1 16.65 0.656
16:05 1025 30.27 855 25.25 16 60.9 44 3.9 39 16.41 0.646
16:06 1025 30.27 855 25.25 15.8 60.4 50 5.6 42.1 16.15 0.636
16:07 1025 30.27 855 25.25 15.7 60.2 53 6.2 43.1 16.05 0.632
16:08 1025 30.27 855 25.25 15.6 60.1 49 5 41 16.03 0.631
16:09 1025 30.27 855 25.25 15.6 60.1 56 6.9 44.5 16.03 0.631
16:10 1025 30.27 855 25.25 15.7 60.2 51 5.7 42.3 16.12 0.635
16:11 1025 30.27 855 25.25 15.7 60.2 50 5.5 41.9 16.11 0.634
16:12 1025 30.27 855 25.25 15.7 60.2 54 6.5 43.8 16.15 0.636
16:13 1025 30.27 855 25.25 15.7 60.2 46 4.3 39.7 16.17 0.637
16:14 1025 30.27 855 25.25 15.6 60.1 54 6.3 43.4 16.11 0.634
16:15 1025 30.27 855 25.25 15.5 59.9 55 6.6 43.8 16.04 0.631
16:16 1025 30.27 855 25.25 15.5 59.8 51 5.4 41.8 15.89 0.626
16:17 1025 30.27 855 25.25 15.3 59.6 47 4.1 39.3 15.72 0.619
16:18 1025 30.27 855 25.25 15.2 59.4 53 5.9 42.6 15.66 0.617
16:19 1025 30.27 855 25.25 15.2 59.4 49 4.8 40.6 15.66 0.617
16:20 1025 30.27 855 25.25 15.2 59.3 50 5 41 15.56 0.613
16:21 1025 30.27 855 25.25 15.2 59.3 50 5 40.9 15.55 0.612
16:22 1025 30.27 855 25.25 15.2 59.3 49 4.7 40.4 15.48 0.609
16:23 1025 30.27 855 25.25 15.1 59.2 50 4.8 40.6 15.51 0.611
16:24 1025 30.27 855 25.25 15 59.1 51 5.1 41.2 15.35 0.604
16:25 1025 30.27 855 25.25 14.9 58.8 49 4.4 39.9 15.28 0.602
16:26 1025 30.27 855 25.25 14.8 58.6 53 5.4 41.6 15.13 0.596
16:27 1025 30.27 855 25.25 14.6 58.4 51 4.7 40.5 15.06 0.593
16:28 1025 30.27 855 25.25 14.6 58.3 53 5.1 41.2 15 0.591
16:29 1025 30.27 855 25.25 14.6 58.2 53 5.2 41.4 15.02 0.591
16:30 1025 30.27 855 25.25 14.6 58.3 56 6.1 43 15.09 0.594
16:31 1025 30.27 855 25.25 14.8 58.6 51 4.8 40.7 15.25 0.6
16:32 1025 30.27 855 25.25 15 59 52 5.3 41.5 15.39 0.606
16:33 1025 30.27 855 25.25 15.3 59.5 51 5.2 41.4 15.66 0.617
16:34 1025 30.27 855 25.25 15.6 60 49 4.9 40.7 15.95 0.628
16:35 1025 30.27 855 25.25 15.8 60.5 52 6 42.9 16.15 0.636
16:36 1025 30.27 855 25.25 16.1 61 55 7.2 45 16.27 0.641
16:37 1025 30.27 855 25.25 16.2 61.2 47 5.1 41.3 16.42 0.646
16:38 1025 30.27 855 25.25 16.4 61.4 48 5.5 41.8 16.48 0.649
16:39 1025 30.27 855 25.25 16.4 61.6 49 5.8 42.4 16.53 0.651
16:40 1025 30.27 855 25.25 16.5 61.7 46 5 41.1 16.54 0.651
16:41 1025 30.27 855 25.25 16.4 61.5 50 6 42.8 16.47 0.648
16:42 1025 30.27 855 25.25 16.5 61.6 50 6 42.8 16.64 0.655
16:43 1025 30.27 855 25.25 16.6 61.8 49 5.8 42.4 16.77 0.66
16:44 1025 30.27 855 25.25 16.7 62 45 4.8 40.6 16.84 0.663
16:45 1025 30.27 855 25.25 16.7 62.1 49 5.9 42.7 16.79 0.661
16:46 1025 30.27 855 25.25 16.7 62.1 47 5.5 41.9 16.8 0.661
16:47 1025 30.27 855 25.25 16.6 62 47 5.4 41.8 16.73 0.659
16:48 1025 30.27 855 25.25 16.6 61.9 50 6.3 43.3 16.74 0.659
16:49 1025 30.27 855 25.25 16.5 61.7 53 7.1 44.7 16.66 0.656
16:50 1025 30.27 855 25.25 16.5 61.7 48 5.6 42.1 16.73 0.659
16:51 1025 30.27 855 25.25 16.5 61.7 43 4 39.1 16.71 0.658
16:52 1025 30.27 855 25.25 16.5 61.7 45 4.7 40.4 16.56 0.652
16:53 1025 30.27 855 25.25 16.3 61.4 47 5 41 16.36 0.644
16:54 1025 30.27 855 25.25 16.2 61.2 44 4.1 39.4 16.3 0.642
16:55 1025 30.27 855 25.25 16.1 61.1 49 5.5 41.8 16.27 0.641
16:56 1025 30.27 855 25.25 16 60.9 53 6.5 43.8 16.26 0.64
16:57 1025 30.27 855 25.25 16 60.8 49 5.5 41.9 16.34 0.643
16:58 1025 30.27 855 25.25 16.1 60.9 47 4.8 40.7 16.34 0.643
16:59 1025 30.27 855 25.25 16 60.9 49 5.4 41.8 16.31 0.642
17:00 1025 30.27 855 25.25 16 60.8 52 6.3 43.4 16.2 0.638
17:01 1025 30.27 855 25.25 15.8 60.5 53 6.2 43.2 15.98 0.629
17:02 1025 30.27 855 25.25 15.7 60.3 53 6.4 43.4 15.92 0.627
17:03 1025 30.27 855 25.25 15.7 60.2 48 4.8 40.6 15.88 0.625
17:04 1025 30.27 855 25.25 15.5 59.9 52 5.8 42.5 15.76 0.62
17:05 1025 30.27 855 25.25 15.4 59.7 51 5.5 41.9 15.65 0.616
17:06 1025 30.27 855 25.25 15.3 59.6 48 4.6 40.3 15.58 0.613
17:07 1025 30.27 855 25.25 15.2 59.4 45 3.5 38.4 15.47 0.609
17:08 1025 30.27 855 25.25 15.3 59.5 48 4.4 40 15.46 0.609
17:09 1025 30.27 855 25.25 15.3 59.5 45 3.6 38.4 15.46 0.609
17:10 1025 30.27 855 25.25 15.3 59.5 47 4.1 39.4 15.45 0.608
17:11 1025 30.27 855 25.25 15.3 59.6 51 5.5 41.9 15.51 0.611
17:12 1025 30.27 855 25.25 15.4 59.7 52 5.6 42 15.6 0.614
17:13 1025 30.27 855 25.25 15.5 59.9 45 3.6 38.5 15.63 0.615
17:14 1025 30.27 855 25.25 15.6 60.1 53 6 42.9 15.73 0.619
17:15 1025 30.27 855 25.25 15.6 60.1 50 5.4 41.6 15.81 0.622
17:16 1025 30.27 855 25.25 15.6 60.1 50 5.3 41.6 15.85 0.624
17:17 1025 30.27 855 25.25 15.6 60 50 5.4 41.7 15.88 0.625
17:18 1025 30.27 855 25.25 15.6 60 47 4.4 39.8 15.79 0.622
17:19 1025 30.27 855 25.25 15.6 60 44 3.5 38.3 15.77 0.621
17:20 1025 30.27 855 25.25 15.5 60 52 5.9 42.5 15.74 0.62
17:21 1025 30.27 855 25.25 15.5 59.9 49 5 41 15.72 0.619
17:22 1025 30.27 855 25.25 15.4 59.7 49 4.9 40.7 15.68 0.617
17:23 1025 30.27 855 25.25 15.4 59.7 48 4.5 40.1 15.65 0.616
17:24 1025 30.27 855 25.25 15.4 59.6 44 3.2 37.7 15.57 0.613
17:25 1025 30.27 855 25.25 15.3 59.5 43 2.9 37.1 15.5 0.61
17:26 1025 30.27 855 25.25 15.4 59.6 45 3.6 38.4 15.53 0.611
17:27 1025 30.27 855 25.25 15.4 59.7 44 3.4 38.2 15.63 0.615
17:28 1025 30.27 855 25.25 15.5 59.8 51 5.3 41.6 15.69 0.618
17:29 1025 30.27 855 25.25 15.5 59.9 52 5.7 42.3 15.72 0.619
17:30 1025 30.27 855 25.25 15.6 60 50 5.2 41.3 15.77 0.621
17:31 1025 30.27 855 25.25 15.6 60.1 49 5.1 41.2 15.86 0.624
17:32 1025 30.27 855 25.25 15.7 60.3 47 4.4 40 16 0.63
17:33 1025 30.27 855 25.25 15.8 60.4 45 3.9 39.1 16.09 0.633
17:34 1025 30.27 855 25.25 15.9 60.6 45 4.2 39.6 16.16 0.636
17:35 1025 30.27 855 25.25 16 60.9 45 4.2 39.6 16.26 0.64
17:36 1025 30.27 855 25.25 16.1 61 49 5.4 41.8 16.25 0.64
17:37 1025 30.27 855 25.25 16.1 61 42 3.4 38.2 16.25 0.64
17:38 1025 30.27 855 25.25 16.1 60.9 45 4.2 39.5 16.19 0.637
17:39 1025 30.27 855 25.25 16 60.8 44 3.8 38.8 16.14 0.635
17:40 1025 30.27 855 25.25 16 60.8 54 6.7 44.1 16.25 0.64
17:41 1025 30.27 855 25.25 16.1 61 41 2.9 37.2 16.44 0.647
17:42 1025 30.27 855 25.25 16.3 61.3 43 3.9 39 16.53 0.651
17:43 1025 30.27 855 25.25 16.4 61.6 45 4.5 40.1 16.65 0.656
17:44 1025 30.27 855 25.25 16.4 61.6 43 4 39.2 16.66 0.656
17:45 1025 30.27 855 25.25 16.5 61.6 49 5.7 42.3 16.68 0.657
17:46 1025 30.27 855 25.25 16.4 61.6 41 3.4 38.1 16.59 0.653
17:47 1025 30.27 855 25.25 16.4 61.5 49 5.7 42.2 16.65 0.656
17:48 1025 30.27 855 25.25 16.4 61.4 41 3.3 37.9 16.52 0.65
17:49 1025 30.27 855 25.25 16.2 61.2 43 3.9 38.9 16.38 0.645
17:50 1025 30.27 855 25.25 16 60.8 43 3.7 38.7 16.2 0.638
17:51 1025 30.27 855 25.25 15.8 60.5 50 5.7 42.2 16.01 0.63
17:52 1025 30.27 855 25.25 15.7 60.3 46 4.3 39.7 15.91 0.626
17:53 1025 30.27 855 25.25 15.6 60 49 5.1 41.2 15.75 0.62
17:54 1025 30.27 855 25.25 15.5 59.9 48 4.7 40.5 15.72 0.619
17:55 1025 30.27 855 25.25 15.5 59.9 49 5 40.9 15.65 0.616
17:56 1025 30.27 855 25.25 15.5 59.8 47 4.3 39.8 15.65 0.616
17:57 1025 30.27 855 25.25 15.3 59.6 51 5.2 41.4 15.53 0.611
17:58 1025 30.27 855 25.25 15.3 59.5 48 4.4 39.9 15.43 0.607
17:59 1025 30.27 855 25.25 15.1 59.2 50 4.9 40.8 15.3 0.602
18:00 1025 30.27 855 25.25 15.1 59.1 50 4.7 40.5 15.22 0.599
18:01 1025 30.27 855 25.25 15 58.9 52 5.3 41.6 15.17 0.597
18:02 1025 30.27 855 25.25 14.8 58.7 51 4.9 40.8 15.14 0.596
18:03 1025 30.27 855 25.25 14.8 58.7 46 3.3 38 15.02 0.591
18:04 1025 30.27 855 25.25 14.8 58.6 50 4.6 40.3 14.99 0.59
18:05 1025 30.27 855 25.25 14.8 58.6 48 3.9 39 14.99 0.59
18:06 1025 30.27 855 25.25 14.8 58.6 51 4.9 40.8 15.02 0.591
18:07 1025 30.27 855 25.25 14.8 58.6 49 4.4 39.8 15.04 0.592
18:08 1025 30.27 855 25.25 14.8 58.6 48 4.1 39.3 14.98 0.59
18:09 1025 30.27 855 25.25 14.7 58.5 49 4.3 39.7 14.96 0.589
18:10 1025 30.27 855 25.25 14.7 58.5 51 4.8 40.7 15 0.591
18:11 1025 30.27 855 25.25 14.7 58.5 52 5.1 41.3 14.98 0.59
18:12 1025 30.27 855 25.25 14.8 58.6 47 3.5 38.4 15.04 0.592
18:13 1025 30.27 855 25.25 14.8 58.7 50 4.5 40 15.08 0.594
18:14 1025 30.27 855 25.25 14.9 58.8 49 4.5 40.1 15.17 0.597
18:15 1025 30.27 855 25.25 15 58.9 53 5.6 42.1 15.27 0.601
18:16 1025 30.27 855 25.25 15 59.1 50 4.8 40.6 15.33 0.604
18:17 1025 30.27 855 25.25 15 59 52 5.2 41.4 15.31 0.603
18:18 1025 30.27 855 25.25 15 59 49 4.5 40.1 15.29 0.602
18:19 1025 30.27 855 25.25 15 59 47 3.8 38.9 15.27 0.601
18:20 1025 30.27 855 25.25 15 58.9 50 4.7 40.5 15.22 0.599
18:21 1025 30.27 855 25.25 14.9 58.9 51 5.1 41.2 15.22 0.599
18:22 1025 30.27 855 25.25 14.9 58.8 51 4.8 40.7 15.23 0.6
18:23 1025 30.27 855 25.25 14.9 58.9 52 5.3 41.6 15.23 0.6
18:24 1025 30.27 855 25.25 15 58.9 55 6 42.7 15.27 0.601
18:25 1025 30.27 855 25.25 15 58.9 51 5 41.1 15.32 0.603
18:26 1025 30.27 855 25.25 15 58.9 51 5.1 41.2 15.28 0.602
18:27 1025 30.27 855 25.25 15 58.9 51 4.9 40.8 15.26 0.601
18:28 1025 30.27 855 25.25 14.9 58.8 51 5.1 41.1 15.2 0.598
18:29 1025 30.27 855 25.25 14.8 58.7 53 5.4 41.7 15.13 0.596
18:30 1025 30.27 855 25.25 14.8 58.6 51 4.8 40.6 15.06 0.593
18:31 1025 30.27 855 25.25 14.7 58.5 50 4.4 40 15.04 0.592
18:32 1025 30.27 855 25.25 14.7 58.5 55 6 42.7 15.06 0.593
18:33 1025 30.27 855 25.25 14.7 58.5 52 5 41 15.09 0.594
18:34 1025 30.27 855 25.25 14.8 58.6 53 5.4 41.7 15.09 0.594
18:35 1025 30.27 855 25.25 14.9 58.7 50 4.6 40.2 15.14 0.596
18:36 1025 30.27 855 25.25 14.9 58.9 52 5.2 41.3 15.17 0.597
18:37 1025 30.27 855 25.25 15.1 59.1 50 4.8 40.7 15.34 0.604
18:38 1025 30.27 855 25.25 15.2 59.3 52 5.5 41.9 15.5 0.61
18:39 1025 30.27 855 25.25 15.3 59.5 50 5.1 41.2 15.59 0.614
18:40 1025 30.27 855 25.25 15.4 59.7 51 5.3 41.6 15.64 0.616
18:41 1025 30.27 855 25.25 15.5 59.9 47 4.4 39.9 15.76 0.62
18:42 1025 30.27 855 25.25 15.5 60 50 5.3 41.6 15.78 0.621
18:43 1025 30.27 855 25.25 15.6 60.1 50 5.5 41.8 15.83 0.623
18:44 1025 30.27 855 25.25 15.7 60.3 51 5.6 42.1 15.95 0.628
18:45 1025 30.27 855 25.25 15.8 60.4 41 2.7 36.9 16.04 0.631
18:46 1025 30.27 855 25.25 16 60.8 42 3.1 37.5 16.13 0.635
18:47 1025 30.27 855 25.25 16.2 61.1 48 5.2 41.3 16.34 0.643
18:48 1025 30.27 855 25.25 16.3 61.4 45 4.4 40 16.47 0.648
18:49 1025 30.27 855 25.25 16.3 61.3 46 4.6 40.3 16.33 0.643
18:50 1025 30.27 855 25.25 16.1 61.1 43 3.7 38.7 16.24 0.639
18:51 1025 30.27 855 25.25 16 60.7 48 5 41 16.11 0.634
18:52 1025 30.27 855 25.25 15.9 60.7 50 5.6 42.1 16.13 0.635
18:53 1025 30.27 855 25.25 15.9 60.6 47 4.6 40.3 16.14 0.635
18:54 1025 30.27 855 25.25 15.8 60.5 47 4.6 40.3 16.03 0.631
18:55 1025 30.27 855 25.25 15.7 60.3 48 4.9 40.9 15.94 0.628
18:56 1025 30.27 855 25.25 15.6 60.1 47 4.3 39.8 15.86 0.624
18:57 1025 30.27 855 25.25 15.5 59.8 46 3.9 39 15.71 0.619
18:58 1025 30.27 855 25.25 15.4 59.6 51 5.3 41.6 15.6 0.614
18:59 1025 30.27 854 25.22 15.3 59.5 51 5.3 41.5 15.54 0.612
19:00 1025 30.27 854 25.22 15.3 59.5 47 4.2 39.6 15.52 0.611
19:01 1025 30.27 855 25.25 15.3 59.5 49 4.8 40.7 15.49 0.61
19:02 1025 30.27 855 25.25 15.2 59.3 53 5.6 42.2 15.48 0.609
19:03 1025 30.27 855 25.25 15.2 59.3 54 6.1 43 15.48 0.609
19:04 1025 30.27 855 25.25 15.2 59.4 50 4.9 40.8 15.44 0.608
19:05 1025 30.27 855 25.25 15.1 59.2 52 5.3 41.5 15.35 0.604
19:06 1025 30.27 855 25.25 15 59.1 51 5.1 41.2 15.32 0.603
19:07 1025 30.27 855 25.25 15 59 50 4.9 40.8 15.26 0.601
19:08 1025 30.27 855 25.25 15 59 48 4.3 39.7 15.16 0.597
19:09 1025 30.27 855 25.25 15 59 50 4.8 40.6 15.18 0.598
19:10 1025 30.27 855 25.25 15 59 49 4.6 40.2 15.22 0.599
19:11 1025 30.27 855 25.25 15 59.1 51 4.9 40.9 15.24 0.6
19:12 1025 30.27 855 25.25 15 59 50 4.9 40.7 15.25 0.6
19:13 1025 30.27 855 25.25 15 58.9 52 5.2 41.3 15.19 0.598
19:14 1025 30.27 855 25.25 14.9 58.8 50 4.7 40.5 15.19 0.598
19:15 1025 30.27 855 25.25 14.8 58.7 51 4.8 40.7 15.07 0.593
19:16 1025 30.27 855 25.25 14.8 58.6 52 5.1 41.1 15.03 0.592
19:17 1025 30.27 855 25.25 14.6 58.3 54 5.4 41.7 14.92 0.587
19:18 1025 30.27 855 25.25 14.6 58.3 54 5.4 41.7 14.83 0.584
19:19 1025 30.27 855 25.25 14.5 58 55 5.5 42 14.72 0.58
19:20 1025 30.27 855 25.25 14.4 57.8 54 5.2 41.4 14.63 0.576
19:21 1025 30.27 855 25.25 14.3 57.7 53 5.1 41.1 14.6 0.575
19:22 1025 30.27 855 25.25 14.3 57.7 53 4.8 40.6 14.6 0.575
19:23 1025 30.27 855 25.25 14.3 57.8 55 5.4 41.8 14.62 0.576
19:24 1025 30.27 855 25.25 14.4 57.8 53 5.1 41.1 14.64 0.576
19:25 1025 30.27 855 25.25 14.5 58.1 54 5.3 41.6 14.67 0.578
19:26 1025 30.27 855 25.25 14.6 58.2 54 5.4 41.8 14.81 0.583
19:27 1025 30.27 855 25.25 14.7 58.5 54 5.6 42.1 14.93 0.588
19:28 1025 30.27 855 25.25 14.8 58.6 53 5.4 41.7 15.06 0.593
19:29 1025 30.27 855 25.25 14.8 58.7 54 5.6 42 15.08 0.594
19:30 1025 30.27 855 25.25 14.9 58.8 54 5.8 42.5 15.17 0.597
19:31 1025 30.27 855 25.25 14.9 58.8 52 5.1 41.3 15.12 0.595
19:32 1025 30.27 855 25.25 14.9 58.7 53 5.6 42 15.07 0.593
19:33 1025 30.27 855 25.25 14.9 58.7 49 4.4 39.9 15.08 0.594
19:34 1025 30.27 855 25.25 14.8 58.7 51 5 40.9 15.06 0.593
19:35 1026 30.3 855 25.25 14.8 58.7 53 5.4 41.7 15.1 0.594
19:36 1026 30.3 855 25.25 14.9 58.8 51 5.1 41.1 15.14 0.596
19:37 1026 30.3 855 25.25 14.9 58.8 54 5.7 42.3 15.17 0.597
19:38 1026 30.3 855 25.25 14.9 58.9 49 4.5 40.1 15.17 0.597
19:39 1026 30.3 855 25.25 14.9 58.9 53 5.4 41.7 15.18 0.598
19:40 1025 30.27 855 25.25 15 59 53 5.5 41.8 15.27 0.601
19:41 1025 30.27 855 25.25 15.1 59.2 50 4.8 40.6 15.31 0.603
19:42 1026 30.3 855 25.25 15.1 59.2 52 5.5 41.8 15.33 0.604
19:43 1026 30.3 855 25.25 15.2 59.4 53 5.7 42.2 15.43 0.607
19:44 1026 30.3 855 25.25 15.3 59.6 52 5.6 42 15.49 0.61
19:45 1026 30.3 855 25.25 15.4 59.7 51 5.4 41.7 15.5 0.61
19:46 1026 30.3 855 25.25 15.4 59.6 50 5.1 41.2 15.52 0.611
19:47 1026 30.3 855 25.25 15.4 59.7 48 4.4 40 15.51 0.611
19:48 1026 30.3 855 25.25 15.4 59.8 49 4.7 40.5 15.58 0.613
19:49 1026 30.3 855 25.25 15.5 60 49 4.9 40.8 15.62 0.615
19:50 1026 30.3 855 25.25 15.6 60.1 46 4 39.3 15.66 0.617
19:51 1026 30.3 855 25.25 15.6 60.1 49 5.1 41.2 15.62 0.615
19:52 1026 30.3 855 25.25 15.5 60 47 4.4 40 15.59 0.614
19:53 1026 30.3 855 25.25 15.5 60 51 5.6 42.1 15.56 0.613
19:54 1026 30.3 855 25.25 15.5 59.9 50 5.3 41.5 15.59 0.614
19:55 1026 30.3 855 25.25 15.5 59.8 49 4.9 40.8 15.54 0.612
19:56 1026 30.3 855 25.25 15.4 59.8 49 4.9 40.8 15.49 0.61
19:57 1026 30.3 855 25.25 15.4 59.7 49 4.9 40.7 15.45 0.608
19:58 1026 30.3 855 25.25 15.4 59.7 49 4.7 40.5 15.4 0.606
19:59 1026 30.3 855 25.25 15.4 59.7 51 5.5 42 15.44 0.608
20:00 1026 30.3 855 25.25 15.4 59.8 53 5.9 42.7 15.47 0.609
20:01 1026 30.3 855 25.25 15.4 59.7 50 5.1 41.1 15.41 0.607
20:02 1026 30.3 855 25.25 15.3 59.6 51 5.3 41.5 15.33 0.604
20:03 1026 30.3 855 25.25 15.2 59.4 49 4.7 40.5 15.31 0.603
20:04 1026 30.3 855 25.25 15.2 59.4 49 4.8 40.6 15.27 0.601
20:05 1026 30.3 855 25.25 15.2 59.4 51 5.1 41.2 15.32 0.603
20:06 1026 30.3 855 25.25 15.3 59.5 51 5.2 41.3 15.45 0.608
20:07 1026 30.3 855 25.25 15.4 59.6 51 5.3 41.5 15.52 0.611
20:08 1026 30.3 855 25.25 15.4 59.7 51 5.5 41.9 15.47 0.609
20:09 1026 30.3 855 25.25 15.3 59.6 50 4.9 40.9 15.45 0.608
20:10 1026 30.3 855 25.25 15.3 59.6 49 4.8 40.7 15.37 0.605
20:11 1026 30.3 855 25.25 15.3 59.6 50 5.1 41.1 15.36 0.605
20:12 1026 30.3 855 25.25 15.3 59.6 52 5.5 41.9 15.38 0.606
20:13 1026 30.3 855 25.25 15.4 59.7 50 5.1 41.2 15.43 0.607
20:14 1026 30.3 855 25.25 15.4 59.8 49 4.9 40.8 15.46 0.609
20:15 1026 30.3 855 25.25 15.5 59.9 50 5.1 41.2 15.44 0.608
20:16 1026 30.3 855 25.25 15.5 59.9 49 5 41 15.47 0.609
20:17 1026 30.3 855 25.25 15.5 59.9 50 5.2 41.3 15.46 0.609
20:18 1026 30.3 855 25.25 15.5 59.9 52 5.7 42.3 15.47 0.609
20:19 1026 30.3 855 25.25 15.4 59.8 49 4.9 40.9 15.4 0.606
20:20 1026 30.3 855 25.25 15.3 59.5 49 4.7 40.5 15.26 0.601
20:21 1026 30.3 855 25.25 15.1 59.2 48 4.3 39.7 15.16 0.597
20:22 1026 30.3 855 25.25 15 58.9 48 4.2 39.5 15.06 0.593
20:23 1026 30.3 855 25.25 14.9 58.7 49 4.2 39.6 14.93 0.588
20:24 1026 30.3 855 25.25 14.8 58.6 50 4.5 40.1 14.77 0.581
20:25 1026 30.3 855 25.25 14.7 58.4 49 4 39.2 14.76 0.581
20:26 1026 30.3 855 25.25 14.6 58.3 48 3.8 38.8 14.73 0.58
20:27 1026 30.3 855 25.25 14.6 58.2 50 4.4 40 14.72 0.58
20:28 1026 30.3 855 25.25 14.5 58.2 50 4.3 39.8 14.68 0.578
20:29 1026 30.3 855 25.25 14.5 58.1 50 4.4 39.9 14.65 0.577
20:30 1026 30.3 855 25.25 14.5 58.1 49 4.1 39.3 14.66 0.577
20:31 1026 30.3 855 25.25 14.5 58.2 49 4.2 39.5 14.71 0.579
20:32 1026 30.3 855 25.25 14.6 58.2 48 3.8 38.9 14.73 0.58
20:33 1026 30.3 855 25.25 14.6 58.2 48 3.7 38.7 14.76 0.581
20:34 1026 30.3 855 25.25 14.6 58.2 48 3.7 38.6 14.74 0.58
20:35 1026 30.3 855 25.25 14.6 58.3 48 3.8 38.8 14.77 0.581
20:36 1026 30.3 855 25.25 14.6 58.3 48 3.7 38.6 14.75 0.581
20:37 1026 30.3 855 25.25 14.5 58.2 48 3.8 38.9 14.72 0.58
20:38 1026 30.3 855 25.25 14.5 58 47 3.4 38.1 14.6 0.575
20:39 1026 30.3 855 25.25 14.3 57.8 49 3.7 38.7 14.51 0.571
20:40 1026 30.3 855 25.25 14.2 57.6 50 4.1 39.3 14.4 0.567
20:41 1026 30.3 855 25.25 14.1 57.4 50 3.8 38.9 14.29 0.563
20:42 1026 30.3 855 25.25 14 57.2 51 4.1 39.5 14.2 0.559
20:43 1026 30.3 855 25.25 13.9 57 51 4 39.1 14.16 0.557
20:44 1026 30.3 855 25.25 13.9 56.9 51 4 39.3 14.07 0.554
20:45 1026 30.3 855 25.25 13.7 56.7 51 3.7 38.7 13.94 0.549
20:46 1026 30.3 855 25.25 13.6 56.4 48 2.7 36.9 13.8 0.543
20:47 1026 30.3 855 25.25 13.5 56.3 48 2.8 37.1 13.77 0.542
20:48 1026 30.3 855 25.25 13.6 56.4 49 3 37.4 13.79 0.543
20:49 1026 30.3 855 25.25 13.5 56.3 49 2.9 37.3 13.8 0.543
20:50 1026 30.3 855 25.25 13.5 56.3 51 3.5 38.4 13.82 0.544
20:51 1026 30.3 855 25.25 13.5 56.2 50 3.3 37.9 13.8 0.543
20:52 1026 30.3 855 25.25 13.5 56.2 49 3.2 37.7 13.77 0.542
20:53 1026 30.3 855 25.25 13.5 56.2 49 3 37.3 13.79 0.543
20:54 1026 30.3 855 25.25 13.4 56.1 49 2.9 37.3 13.77 0.542
20:55 1026 30.3 855 25.25 13.4 56 49 2.9 37.2 13.73 0.541
20:56 1026 30.3 855 25.25 13.3 56 49 2.9 37.2 13.66 0.538
20:57 1026 30.3 855 25.25 13.2 55.7 49 2.8 37.1 13.58 0.535
20:58 1026 30.3 855 25.25 13.1 55.6 50 3.1 37.5 13.47 0.53
20:59 1026 30.3 855 25.25 13 55.4 52 3.4 38.2 13.38 0.527
21:00 1026 30.3 855 25.25 12.8 55.1 54 3.9 39.1 13.19 0.519
21:01 1026 30.3 855 25.25 12.5 54.5 59 4.8 40.6 12.93 0.509
21:02 1026 30.3 855 25.25 12.1 53.8 59 4.4 40 12.64 0.498
21:03 1026 30.3 855 25.25 11.7 53.1 62 4.7 40.5 12.27 0.483
21:04 1026 30.3 855 25.25 11.4 52.5 58 3.4 38.1 11.94 0.47
21:05 1026 30.3 855 25.25 11.4 52.5 58 3.4 38.2 11.82 0.465
21:06 1026 30.3 855 25.25 11.4 52.5 61 4.1 39.5 11.69 0.46
21:07 1026 30.3 855 25.25 11.2 52.2 62 4.2 39.5 11.55 0.455
21:08 1026 30.3 855 25.25 11 51.8 62 4.1 39.3 11.41 0.449
21:09 1026 30.3 855 25.25 10.9 51.7 61 3.7 38.6 11.25 0.443
21:10 1026 30.3 855 25.25 10.9 51.7 62 3.9 39 11.23 0.442
21:11 1026 30.3 855 25.25 10.9 51.6 62 4 39.2 11.16 0.439
21:12 1026 30.3 855 25.25 10.8 51.4 63 4 39.3 11.02 0.434
21:13 1026 30.3 855 25.25 10.7 51.2 63 3.9 39.1 10.89 0.429
21:14 1026 30.3 855 25.25 10.6 51.1 64 4 39.2 10.83 0.426
21:15 1026 30.3 855 25.25 10.4 50.8 64 3.9 39 10.7 0.421
21:16 1026 30.3 855 25.25 10.3 50.5 65 4 39.3 10.6 0.417
21:17 1026 30.3 855 25.25 10.2 50.3 64 3.7 38.6 10.44 0.411
21:18 1026 30.3 855 25.25 10.3 50.5 63 3.5 38.3 10.44 0.411
21:19 1026 30.3 855 25.25 10.4 50.7 62 3.5 38.3 10.47 0.412
21:20 1026 30.3 855 25.25 10.5 50.9 61 3.3 37.9 10.48 0.413
21:21 1026 30.3 855 25.25 10.7 51.3 60 3.4 38 10.59 0.417
21:22 1026 30.3 855 25.25 10.9 51.6 59 3.3 37.9 10.69 0.421
21:23 1026 30.3 855 25.25 11 51.7 59 3.4 38.2 10.82 0.426
21:24 1026 30.3 855 25.25 10.9 51.7 60 3.5 38.3 10.82 0.426
21:25 1026 30.3 855 25.25 10.9 51.7 60 3.5 38.2 10.86 0.428
21:26 1026 30.3 855 25.25 10.8 51.5 61 3.6 38.5 10.82 0.426
21:27 1026 30.3 855 25.25 10.6 51.1 64 4.1 39.4 10.65 0.419
21:28 1026 30.3 855 25.25 10.2 50.3 66 4.1 39.4 10.34 0.407
21:29 1026 30.3 855 25.25 9.8 49.6 67 4.1 39.3 9.99 0.393
21:30 1026 30.3 855 25.25 9.5 49.1 68 4 39.2 9.8 0.386
21:31 1026 30.3 855 25.25 9.2 48.6 70 4 39.2 9.56 0.376
21:32 1026 30.3 855 25.25 8.9 48.1 71 4.1 39.3 9.33 0.367
21:33 1026 30.3 855 25.25 8.6 47.6 73 4.1 39.4 9.05 0.356
21:34 1026 30.3 855 25.25 8.4 47.1 75 4.2 39.5 8.79 0.346
21:35 1026 30.3 855 25.25 8 46.4 76 4.1 39.4 8.48 0.334
21:36 1026 30.3 855 25.25 7.8 46 78 4.1 39.4 8.22 0.324
21:37 1026 30.3 855 25.25 7.6 45.6 79 4.1 39.4 7.98 0.314
21:38 1026 30.3 855 25.25 7.4 45.4 80 4.2 39.5 7.8 0.307
21:39 1026 30.3 855 25.25 7.4 45.3 79 4.1 39.4 7.79 0.307
21:40 1026 30.3 855 25.25 7.4 45.4 80 4.2 39.6 7.79 0.307
21:41 1026 30.3 855 25.25 7.4 45.3 80 4.3 39.7 7.75 0.305
21:42 1026 30.3 855 25.25 7.3 45.2 81 4.3 39.8 7.7 0.303
21:43 1026 30.3 855 25.25 7.4 45.3 81 4.3 39.8 7.75 0.305
21:44 1026 30.3 855 25.25 7.4 45.4 81 4.4 39.8 7.71 0.304
21:45 1026 30.3 855 25.25 7.5 45.4 82 4.5 40.1 7.76 0.306
21:46 1026 30.3 855 25.25 7.5 45.5 82 4.6 40.3 7.79 0.307
21:47 1026 30.3 855 25.25 7.5 45.5 82 4.7 40.4 7.78 0.306
21:48 1026 30.3 855 25.25 7.6 45.7 82 4.7 40.5 7.81 0.307
21:49 1026 30.3 855 25.25 7.7 45.9 81 4.7 40.5 7.88 0.31
21:50 1026 30.3 855 25.25 7.8 46 81 4.8 40.6 7.93 0.312
21:51 1026 30.3 855 25.25 7.7 45.9 81 4.7 40.5 7.98 0.314
21:52 1026 30.3 855 25.25 7.7 45.8 82 4.7 40.5 7.92 0.312
21:53 1026 30.3 855 25.25 7.5 45.5 82 4.7 40.5 7.82 0.308
21:54 1026 30.3 855 25.25 7.4 45.3 83 4.7 40.4 7.73 0.304
21:55 1026 30.3 855 25.25 7.3 45.1 83 4.7 40.4 7.64 0.301
21:56 1026 30.3 855 25.25 7.2 45 84 4.7 40.4 7.55 0.297
21:57 1026 30.3 855 25.25 7.1 44.8 84 4.6 40.4 7.46 0.294
21:58 1026 30.3 855 25.25 7 44.7 84 4.6 40.3 7.41 0.292
21:59 1026 30.3 855 25.25 6.9 44.5 85 4.6 40.3 7.32 0.288
22:00 1026 30.3 855 25.25 6.8 44.3 86 4.6 40.3 7.19 0.283
22:01 1026 30.3 855 25.25 6.7 44.1 87 4.7 40.4 7.11 0.28
22:02 1026 30.3 855 25.25 6.6 43.9 87 4.6 40.2 6.987 0.275
22:03 1026 30.3 855 25.25 6.5 43.6 87 4.4 40 6.875 0.271
22:04 1026 30.3 855 25.25 6.3 43.4 87 4.4 39.9 6.717 0.264
22:05 1026 30.3 855 25.25 6.2 43.1 88 4.4 39.9 6.611 0.26
22:06 1026 30.3 855 25.25 6 42.9 89 4.3 39.8 6.515 0.256
22:07 1026 30.3 855 25.25 6 42.7 89 4.4 39.8 6.402 0.252
22:08 1026 30.3 855 25.25 5.9 42.6 90 4.4 39.9 6.353 0.25
22:09 1026 30.3 855 25.25 5.9 42.6 90 4.4 39.8 6.324 0.249
22:10 1026 30.3 855 25.25 5.8 42.5 90 4.3 39.8 6.279 0.247
22:11 1026 30.3 855 25.25 5.8 42.5 90 4.3 39.8 6.23 0.245
22:12 1026 30.3 855 25.25 5.8 42.4 90 4.2 39.6 6.184 0.243
22:13 1026 30.3 855 25.25 5.7 42.2 90 4.2 39.6 6.111 0.241
22:14 1026 30.3 855 25.25 5.7 42.2 91 4.3 39.8 6.112 0.241
22:15 1026 30.3 855 25.25 5.7 42.3 91 4.3 39.8 6.135 0.242
22:16 1026 30.3 856 25.28 5.8 42.4 90 4.3 39.8 6.203 0.244
22:17 1026 30.3 856 25.28 5.9 42.6 90 4.3 39.8 6.237 0.246
22:18 1026 30.3 855 25.25 6 42.8 89 4.4 39.8 6.333 0.249
22:19 1026 30.3 855 25.25 6.1 43 89 4.4 39.9 6.424 0.253
22:20 1026 30.3 855 25.25 6.2 43.1 88 4.4 40 6.543 0.258
22:21 1026 30.3 856 25.28 6.3 43.3 87 4.4 39.8 6.634 0.261
22:22 1026 30.3 856 25.28 6.4 43.5 87 4.4 40 6.696 0.264
22:23 1026 30.3 856 25.28 6.5 43.7 87 4.4 39.9 6.787 0.267
22:24 1026 30.3 856 25.28 6.6 43.9 86 4.5 40 6.894 0.271
22:25 1026 30.3 855 25.25 6.8 44.2 85 4.4 39.9 7.08 0.279
22:26 1026 30.3 856 25.28 7 44.5 84 4.4 40 7.2 0.283
22:27 1026 30.3 856 25.28 7 44.6 84 4.5 40.1 7.3 0.287
22:28 1026 30.3 856 25.28 7 44.6 84 4.5 40 7.18 0.283
22:29 1026 30.3 856 25.28 6.9 44.4 85 4.5 40.1 7.14 0.281
22:30 1026 30.3 855 25.25 6.8 44.2 85 4.5 40.1 7.1 0.28
22:31 1026 30.3 855 25.25 6.7 44.1 85 4.4 39.9 7.06 0.278
22:32 1026 30.3 855 25.25 6.8 44.2 85 4.4 40 7.07 0.278
22:33 1026 30.3 855 25.25 6.8 44.2 84 4.3 39.8 7.1 0.28
22:34 1026 30.3 856 25.28 6.9 44.4 83 4.3 39.7 7.12 0.28
22:35 1026 30.3 855 25.25 6.9 44.5 83 4.3 39.7 7.14 0.281
22:36 1026 30.3 855 25.25 7 44.6 83 4.2 39.6 7.19 0.283
22:37 1026 30.3 856 25.28 7 44.5 83 4.2 39.6 7.13 0.281
22:38 1026 30.3 856 25.28 6.9 44.4 83 4.2 39.5 7.14 0.281
22:39 1026 30.3 856 25.28 6.8 44.3 83 4.2 39.5 7.1 0.28
22:40 1026 30.3 856 25.28 6.8 44.2 83 4.1 39.5 7.01 0.276
22:41 1026 30.3 856 25.28 6.7 44.1 83 4.1 39.4 7.01 0.276
22:42 1026 30.3 856 25.28 6.7 44 84 4.1 39.4 6.935 0.273
22:43 1026 30.3 856 25.28 6.6 43.9 84 4.1 39.4 6.91 0.272
22:44 1026 30.3 856 25.28 6.7 44 84 4.1 39.4 6.933 0.273
22:45 1026 30.3 856 25.28 6.6 43.9 84 4 39.2 6.922 0.273
22:46 1026 30.3 856 25.28 6.6 43.8 84 4 39.2 6.838 0.269
22:47 1026 30.3 856 25.28 6.5 43.8 83 3.9 39.1 6.793 0.267
22:48 1026 30.3 856 25.28 6.5 43.7 83 3.9 39 6.866 0.27
22:49 1026 30.3 856 25.28 6.6 43.9 83 3.9 38.9 6.863 0.27
22:50 1026 30.3 856 25.28 6.6 43.8 82 3.8 38.8 6.914 0.272
22:51 1026 30.3 856 25.28 6.6 43.8 82 3.7 38.7 6.829 0.269
22:52 1026 30.3 856 25.28 6.5 43.7 82 3.7 38.7 6.825 0.269
22:53 1026 30.3 856 25.28 6.4 43.5 83 3.7 38.6 6.723 0.265
22:54 1026 30.3 856 25.28 6.3 43.3 83 3.6 38.4 6.616 0.26
22:55 1026 30.3 855 25.25 6.1 43 83 3.5 38.3 6.555 0.258
22:56 1026 30.3 856 25.28 6.1 43 84 3.6 38.4 6.482 0.255
22:57 1026 30.3 855 25.25 6.1 43 84 3.6 38.4 6.431 0.253
22:58 1026 30.3 855 25.25 6.1 43 84 3.5 38.4 6.421 0.253
22:59 1026 30.3 856 25.28 6.1 43 84 3.5 38.4 6.432 0.253
23:00 1026 30.3 855 25.25 6.1 43 84 3.5 38.4 6.387 0.251
23:01 1026 30.3 856 25.28 6.1 43 84 3.5 38.4 6.382 0.251
23:02 1026 30.3 855 25.25 6.1 43 83 3.5 38.3 6.354 0.25
23:03 1026 30.3 855 25.25 6.2 43.2 83 3.5 38.3 6.411 0.252
23:04 1026 30.3 855 25.25 6.3 43.3 82 3.5 38.2 6.468 0.255
23:05 1026 30.3 855 25.25 6.3 43.4 82 3.5 38.3 6.507 0.256
23:06 1026 30.3 855 25.25 6.3 43.4 82 3.5 38.3 6.536 0.257
23:07 1026 30.3 855 25.25 6.4 43.5 82 3.5 38.4 6.627 0.261
23:08 1026 30.3 855 25.25 6.5 43.8 81 3.5 38.4 6.763 0.266
23:09 1026 30.3 855 25.25 6.7 44.1 80 3.6 38.5 6.898 0.272
23:10 1026 30.3 855 25.25 6.8 44.3 80 3.6 38.5 6.995 0.275
23:11 1026 30.3 855 25.25 6.9 44.4 80 3.6 38.5 7.09 0.279
23:12 1026 30.3 855 25.25 7 44.5 79 3.6 38.5 7.15 0.281
23:13 1026 30.3 855 25.25 7.2 44.9 78 3.7 38.6 7.36 0.29
23:14 1026 30.3 855 25.25 7.3 45.1 78 3.7 38.7 7.47 0.294
23:15 1026 30.3 855 25.25 7.4 45.4 77 3.7 38.7 7.59 0.299
23:16 1026 30.3 855 25.25 7.5 45.5 77 3.8 38.8 7.68 0.302
23:17 1026 30.3 855 25.25 7.5 45.4 77 3.8 38.8 7.69 0.303
23:18 1026 30.3 855 25.25 7.4 45.4 77 3.7 38.7 7.68 0.302
23:19 1026 30.3 855 25.25 7.4 45.2 77 3.7 38.6 7.66 0.302
23:20 1026 30.3 855 25.25 7.4 45.3 78 3.8 38.8 7.62 0.3
23:21 1026 30.3 855 25.25 7.3 45.2 78 3.7 38.7 7.63 0.3
23:22 1026 30.3 855 25.25 7.3 45.2 78 3.7 38.7 7.57 0.298
23:23 1026 30.3 855 25.25 7.3 45.1 78 3.7 38.6 7.56 0.298
23:24 1026 30.3 855 25.25 7.2 44.9 78 3.6 38.5 7.47 0.294
23:25 1026 30.3 855 25.25 7.2 45 78 3.5 38.4 7.46 0.294
23:26 1026 30.3 855 25.25 7.3 45.1 77 3.5 38.4 7.52 0.296
23:27 1026 30.3 855 25.25 7.3 45.1 78 3.6 38.5 7.54 0.297
23:28 1026 30.3 855 25.25 7.2 45 78 3.6 38.4 7.51 0.296
23:29 1026 30.3 855 25.25 7.2 45 78 3.6 38.5 7.49 0.295
23:30 1026 30.3 855 25.25 7.1 44.8 78 3.6 38.4 7.43 0.293
23:31 1026 30.3 855 25.25 7 44.7 78 3.6 38.4 7.35 0.289
23:32 1026 30.3 855 25.25 7 44.6 79 3.6 38.4 7.31 0.288
23:33 1026 30.3 855 25.25 6.9 44.5 79 3.6 38.4 7.26 0.286
23:34 1026 30.3 855 25.25 6.8 44.3 79 3.5 38.3 7.17 0.282
23:35 1026 30.3 855 25.25 6.7 44.1 80 3.5 38.3 7.1 0.28
23:36 1026 30.3 855 25.25 6.7 44 80 3.4 38.2 7.02 0.276
23:37 1026 30.3 855 25.25 6.6 43.9 80 3.4 38.2 6.968 0.274
23:38 1026 30.3 855 25.25 6.6 43.8 80 3.4 38.1 6.946 0.273
23:39 1026 30.3 855 25.25 6.5 43.8 80 3.4 38.1 6.906 0.272
23:40 1026 30.3 855 25.25 6.5 43.7 81 3.4 38.1 6.844 0.269
23:41 1026 30.3 855 25.25 6.5 43.7 80 3.4 38.1 6.855 0.27
23:42 1026 30.3 855 25.25 6.5 43.8 80 3.4 38.1 6.872 0.271
23:43 1026 30.3 855 25.25 6.5 43.7 80 3.4 38.1 6.81 0.268
23:44 1026 30.3 855 25.25 6.5 43.7 81 3.4 38.2 6.855 0.27
23:45 1026 30.3 855 25.25 6.5 43.7 81 3.4 38.2 6.81 0.268
23:46 1026 30.3 855 25.25 6.5 43.7 80 3.4 38.1 6.838 0.269
23:47 1026 30.3 855 25.25 6.6 43.9 80 3.4 38.2 6.923 0.273
23:48 1026 30.3 855 25.25 6.7 44.1 80 3.4 38.2 6.969 0.274
23:49 1026 30.3 855 25.25 6.7 44.1 79 3.4 38.1 7.01 0.276
23:50 1026 30.3 855 25.25 6.9 44.3 79 3.4 38.2 7.07 0.278
23:51 1026 30.3 855 25.25 6.9 44.3 79 3.4 38.2 7.12 0.28
23:52 1026 30.3 855 25.25 6.9 44.4 78 3.4 38.1 7.16 0.282
23:53 1026 30.3 855 25.25 7 44.6 78 3.4 38.1 7.26 0.286
23:54 1026 30.3 855 25.25 7 44.7 78 3.4 38.2 7.29 0.287
23:55 1026 30.3 855 25.25 7 44.6 77 3.3 37.9 7.26 0.286
23:56 1026 30.3 855 25.25 7 44.6 77 3.3 38 7.28 0.287
23:57 1026 30.3 855 25.25 7 44.6 77 3.3 38 7.29 0.287
23:58 1026 30.3 855 25.25 6.9 44.5 78 3.3 37.9 7.24 0.285
23:59 1026 30.3 855 25.25 6.9 44.4 78 3.3 38 7.21 0.284
24:00 1026 30.3 855 25.25 6.8 44.2 79 3.3 38 7.11 0.28